<?xml version="1.0" encoding="UTF-8" standalone="no" ?>
<gpx xmlns="http://www.topografix.com/GPX/1/1" xmlns:xsi="http://www.w3.org/2001/XMLSchema-instance" xsi:schemaLocation="http://www.topografix.com/GPX/1/1 http://www.topografix.com/GPX/1/1/gpx.xsd" version="1.1" creator="VisuGPX - https://www.visugpx.com">
  <metadata>
    <name>24 03 19 VTT</name>
    <desc><![CDATA[24 03 19 randonnée VTT, près de BRAS]]></desc>
  </metadata>
  <trk>
    <name><![CDATA[2019-01-27 13:10:09 001]]></name>
    <trkseg>
      <trkpt lat="43.43961" lon="5.86023">
        <ele>403.89</ele>
        <time>2019-01-27T09:05:12Z</time>
      </trkpt>
      <trkpt lat="43.43971" lon="5.86029">
        <ele>400.05</ele>
        <time>2019-01-27T09:05:24Z</time>
      </trkpt>
      <trkpt lat="43.4397" lon="5.8603">
        <ele>396.68</ele>
        <time>2019-01-27T09:05:26Z</time>
      </trkpt>
      <trkpt lat="43.4397" lon="5.8603">
        <ele>391.87</ele>
        <time>2019-01-27T09:05:28Z</time>
      </trkpt>
      <trkpt lat="43.4397" lon="5.8603">
        <ele>390.43</ele>
        <time>2019-01-27T09:05:30Z</time>
      </trkpt>
      <trkpt lat="43.4397" lon="5.8603">
        <ele>386.11</ele>
        <time>2019-01-27T09:05:33Z</time>
      </trkpt>
      <trkpt lat="43.4397" lon="5.86031">
        <ele>381.78</ele>
        <time>2019-01-27T09:05:36Z</time>
      </trkpt>
      <trkpt lat="43.43971" lon="5.86031">
        <ele>378.42</ele>
        <time>2019-01-27T09:05:39Z</time>
      </trkpt>
      <trkpt lat="43.43971" lon="5.86031">
        <ele>375.05</ele>
        <time>2019-01-27T09:05:42Z</time>
      </trkpt>
      <trkpt lat="43.43971" lon="5.8603">
        <ele>371.69</ele>
        <time>2019-01-27T09:05:46Z</time>
      </trkpt>
      <trkpt lat="43.43971" lon="5.8603">
        <ele>368.32</ele>
        <time>2019-01-27T09:05:50Z</time>
      </trkpt>
      <trkpt lat="43.43972" lon="5.86029">
        <ele>365.44</ele>
        <time>2019-01-27T09:05:54Z</time>
      </trkpt>
      <trkpt lat="43.43972" lon="5.86029">
        <ele>362.07</ele>
        <time>2019-01-27T09:06:00Z</time>
      </trkpt>
      <trkpt lat="43.43971" lon="5.86029">
        <ele>358.71</ele>
        <time>2019-01-27T09:06:08Z</time>
      </trkpt>
      <trkpt lat="43.4397" lon="5.86026">
        <ele>355.83</ele>
        <time>2019-01-27T09:06:20Z</time>
      </trkpt>
      <trkpt lat="43.43969" lon="5.86027">
        <ele>352.46</ele>
        <time>2019-01-27T09:06:43Z</time>
      </trkpt>
      <trkpt lat="43.43969" lon="5.86028">
        <ele>350.54</ele>
        <time>2019-01-27T09:07:23Z</time>
      </trkpt>
      <trkpt lat="43.43968" lon="5.86028">
        <ele>350.54</ele>
        <time>2019-01-27T09:08:03Z</time>
      </trkpt>
      <trkpt lat="43.43969" lon="5.86027">
        <ele>350.54</ele>
        <time>2019-01-27T09:08:50Z</time>
      </trkpt>
      <trkpt lat="43.43969" lon="5.86026">
        <ele>350.06</ele>
        <time>2019-01-27T09:09:34Z</time>
      </trkpt>
      <trkpt lat="43.43969" lon="5.86027">
        <ele>350.06</ele>
        <time>2019-01-27T09:10:23Z</time>
      </trkpt>
      <trkpt lat="43.4397" lon="5.86028">
        <ele>349.58</ele>
        <time>2019-01-27T09:11:15Z</time>
      </trkpt>
      <trkpt lat="43.4397" lon="5.86028">
        <ele>349.1</ele>
        <time>2019-01-27T09:11:53Z</time>
      </trkpt>
      <trkpt lat="43.43969" lon="5.86031">
        <ele>349.1</ele>
        <time>2019-01-27T09:12:26Z</time>
      </trkpt>
      <trkpt lat="43.4397" lon="5.86026">
        <ele>349.1</ele>
        <time>2019-01-27T09:12:52Z</time>
      </trkpt>
      <trkpt lat="43.43974" lon="5.86026">
        <ele>348.62</ele>
        <time>2019-01-27T09:12:58Z</time>
      </trkpt>
      <trkpt lat="43.43978" lon="5.8602">
        <ele>348.62</ele>
        <time>2019-01-27T09:13:10Z</time>
      </trkpt>
      <trkpt lat="43.43983" lon="5.86018">
        <ele>348.62</ele>
        <time>2019-01-27T09:13:13Z</time>
      </trkpt>
      <trkpt lat="43.43985" lon="5.86019">
        <ele>348.62</ele>
        <time>2019-01-27T09:13:14Z</time>
      </trkpt>
      <trkpt lat="43.43987" lon="5.86022">
        <ele>348.62</ele>
        <time>2019-01-27T09:13:15Z</time>
      </trkpt>
      <trkpt lat="43.4399" lon="5.86026">
        <ele>348.62</ele>
        <time>2019-01-27T09:13:16Z</time>
      </trkpt>
      <trkpt lat="43.43993" lon="5.8603">
        <ele>348.13</ele>
        <time>2019-01-27T09:13:17Z</time>
      </trkpt>
      <trkpt lat="43.44016" lon="5.86058">
        <ele>345.73</ele>
        <time>2019-01-27T09:13:23Z</time>
      </trkpt>
      <trkpt lat="43.4402" lon="5.86063">
        <ele>345.73</ele>
        <time>2019-01-27T09:13:24Z</time>
      </trkpt>
      <trkpt lat="43.44023" lon="5.86069">
        <ele>345.25</ele>
        <time>2019-01-27T09:13:25Z</time>
      </trkpt>
      <trkpt lat="43.44027" lon="5.86075">
        <ele>345.25</ele>
        <time>2019-01-27T09:13:26Z</time>
      </trkpt>
      <trkpt lat="43.4403" lon="5.86081">
        <ele>345.25</ele>
        <time>2019-01-27T09:13:27Z</time>
      </trkpt>
      <trkpt lat="43.44031" lon="5.86088">
        <ele>345.25</ele>
        <time>2019-01-27T09:13:28Z</time>
      </trkpt>
      <trkpt lat="43.44031" lon="5.86095">
        <ele>345.25</ele>
        <time>2019-01-27T09:13:29Z</time>
      </trkpt>
      <trkpt lat="43.44031" lon="5.86102">
        <ele>345.25</ele>
        <time>2019-01-27T09:13:30Z</time>
      </trkpt>
      <trkpt lat="43.4403" lon="5.8611">
        <ele>344.77</ele>
        <time>2019-01-27T09:13:31Z</time>
      </trkpt>
      <trkpt lat="43.44027" lon="5.86169">
        <ele>344.29</ele>
        <time>2019-01-27T09:13:40Z</time>
      </trkpt>
      <trkpt lat="43.44028" lon="5.8619">
        <ele>343.33</ele>
        <time>2019-01-27T09:13:43Z</time>
      </trkpt>
      <trkpt lat="43.44034" lon="5.86234">
        <ele>341.89</ele>
        <time>2019-01-27T09:13:48Z</time>
      </trkpt>
      <trkpt lat="43.44038" lon="5.86265">
        <ele>338.52</ele>
        <time>2019-01-27T09:13:52Z</time>
      </trkpt>
      <trkpt lat="43.4404" lon="5.86278">
        <ele>337.08</ele>
        <time>2019-01-27T09:13:55Z</time>
      </trkpt>
      <trkpt lat="43.44039" lon="5.86289">
        <ele>336.12</ele>
        <time>2019-01-27T09:13:58Z</time>
      </trkpt>
      <trkpt lat="43.44037" lon="5.86291">
        <ele>335.64</ele>
        <time>2019-01-27T09:13:59Z</time>
      </trkpt>
      <trkpt lat="43.44035" lon="5.86292">
        <ele>336.12</ele>
        <time>2019-01-27T09:14:00Z</time>
      </trkpt>
      <trkpt lat="43.43997" lon="5.8628">
        <ele>337.56</ele>
        <time>2019-01-27T09:14:12Z</time>
      </trkpt>
      <trkpt lat="43.43973" lon="5.86212">
        <ele>339.96</ele>
        <time>2019-01-27T09:14:27Z</time>
      </trkpt>
      <trkpt lat="43.43944" lon="5.86135">
        <ele>342.85</ele>
        <time>2019-01-27T09:14:44Z</time>
      </trkpt>
      <trkpt lat="43.43906" lon="5.86047">
        <ele>345.73</ele>
        <time>2019-01-27T09:15:04Z</time>
      </trkpt>
      <trkpt lat="43.4387" lon="5.85971">
        <ele>347.65</ele>
        <time>2019-01-27T09:15:21Z</time>
      </trkpt>
      <trkpt lat="43.43826" lon="5.8589">
        <ele>350.06</ele>
        <time>2019-01-27T09:15:40Z</time>
      </trkpt>
      <trkpt lat="43.43807" lon="5.85857">
        <ele>350.54</ele>
        <time>2019-01-27T09:15:48Z</time>
      </trkpt>
      <trkpt lat="43.43804" lon="5.85853">
        <ele>351.02</ele>
        <time>2019-01-27T09:15:49Z</time>
      </trkpt>
      <trkpt lat="43.43767" lon="5.85787">
        <ele>351.98</ele>
        <time>2019-01-27T09:16:04Z</time>
      </trkpt>
      <trkpt lat="43.4373" lon="5.85714">
        <ele>353.42</ele>
        <time>2019-01-27T09:16:21Z</time>
      </trkpt>
      <trkpt lat="43.43684" lon="5.8565">
        <ele>353.9</ele>
        <time>2019-01-27T09:16:37Z</time>
      </trkpt>
      <trkpt lat="43.4362" lon="5.85572">
        <ele>355.34</ele>
        <time>2019-01-27T09:16:58Z</time>
      </trkpt>
      <trkpt lat="43.43601" lon="5.8555">
        <ele>355.83</ele>
        <time>2019-01-27T09:17:04Z</time>
      </trkpt>
      <trkpt lat="43.43596" lon="5.85547">
        <ele>355.83</ele>
        <time>2019-01-27T09:17:05Z</time>
      </trkpt>
      <trkpt lat="43.43592" lon="5.85546">
        <ele>356.31</ele>
        <time>2019-01-27T09:17:06Z</time>
      </trkpt>
      <trkpt lat="43.43588" lon="5.85547">
        <ele>356.31</ele>
        <time>2019-01-27T09:17:07Z</time>
      </trkpt>
      <trkpt lat="43.43583" lon="5.8555">
        <ele>356.31</ele>
        <time>2019-01-27T09:17:08Z</time>
      </trkpt>
      <trkpt lat="43.43564" lon="5.85557">
        <ele>356.31</ele>
        <time>2019-01-27T09:17:14Z</time>
      </trkpt>
      <trkpt lat="43.43559" lon="5.85557">
        <ele>356.31</ele>
        <time>2019-01-27T09:17:15Z</time>
      </trkpt>
      <trkpt lat="43.43554" lon="5.85556">
        <ele>356.31</ele>
        <time>2019-01-27T09:17:16Z</time>
      </trkpt>
      <trkpt lat="43.43525" lon="5.85551">
        <ele>355.83</ele>
        <time>2019-01-27T09:17:22Z</time>
      </trkpt>
      <trkpt lat="43.43512" lon="5.85547">
        <ele>354.86</ele>
        <time>2019-01-27T09:17:25Z</time>
      </trkpt>
      <trkpt lat="43.43471" lon="5.85529">
        <ele>351.5</ele>
        <time>2019-01-27T09:17:35Z</time>
      </trkpt>
      <trkpt lat="43.43401" lon="5.85498">
        <ele>348.62</ele>
        <time>2019-01-27T09:17:49Z</time>
      </trkpt>
      <trkpt lat="43.43301" lon="5.85455">
        <ele>345.25</ele>
        <time>2019-01-27T09:18:04Z</time>
      </trkpt>
      <trkpt lat="43.43223" lon="5.85421">
        <ele>341.89</ele>
        <time>2019-01-27T09:18:14Z</time>
      </trkpt>
      <trkpt lat="43.43147" lon="5.85379">
        <ele>341.41</ele>
        <time>2019-01-27T09:18:26Z</time>
      </trkpt>
      <trkpt lat="43.43104" lon="5.85334">
        <ele>344.77</ele>
        <time>2019-01-27T09:18:37Z</time>
      </trkpt>
      <trkpt lat="43.4304" lon="5.8525">
        <ele>347.65</ele>
        <time>2019-01-27T09:18:58Z</time>
      </trkpt>
      <trkpt lat="43.43017" lon="5.85225">
        <ele>348.13</ele>
        <time>2019-01-27T09:19:05Z</time>
      </trkpt>
      <trkpt lat="43.42941" lon="5.85178">
        <ele>349.1</ele>
        <time>2019-01-27T09:19:23Z</time>
      </trkpt>
      <trkpt lat="43.42839" lon="5.85119">
        <ele>349.58</ele>
        <time>2019-01-27T09:19:46Z</time>
      </trkpt>
      <trkpt lat="43.42758" lon="5.85111">
        <ele>351.5</ele>
        <time>2019-01-27T09:20:05Z</time>
      </trkpt>
      <trkpt lat="43.42682" lon="5.85109">
        <ele>352.94</ele>
        <time>2019-01-27T09:20:22Z</time>
      </trkpt>
      <trkpt lat="43.42623" lon="5.85121">
        <ele>352.94</ele>
        <time>2019-01-27T09:20:34Z</time>
      </trkpt>
      <trkpt lat="43.4257" lon="5.85158">
        <ele>353.9</ele>
        <time>2019-01-27T09:20:49Z</time>
      </trkpt>
      <trkpt lat="43.42509" lon="5.85212">
        <ele>353.42</ele>
        <time>2019-01-27T09:21:03Z</time>
      </trkpt>
      <trkpt lat="43.42473" lon="5.85229">
        <ele>352.46</ele>
        <time>2019-01-27T09:21:10Z</time>
      </trkpt>
      <trkpt lat="43.42375" lon="5.85257">
        <ele>350.06</ele>
        <time>2019-01-27T09:21:26Z</time>
      </trkpt>
      <trkpt lat="43.42256" lon="5.85283">
        <ele>347.17</ele>
        <time>2019-01-27T09:21:44Z</time>
      </trkpt>
      <trkpt lat="43.42216" lon="5.85291">
        <ele>343.81</ele>
        <time>2019-01-27T09:21:49Z</time>
      </trkpt>
      <trkpt lat="43.42157" lon="5.85303">
        <ele>340.44</ele>
        <time>2019-01-27T09:21:56Z</time>
      </trkpt>
      <trkpt lat="43.42148" lon="5.85304">
        <ele>340.44</ele>
        <time>2019-01-27T09:21:57Z</time>
      </trkpt>
      <trkpt lat="43.42045" lon="5.85308">
        <ele>337.56</ele>
        <time>2019-01-27T09:22:11Z</time>
      </trkpt>
      <trkpt lat="43.42002" lon="5.85295">
        <ele>336.12</ele>
        <time>2019-01-27T09:22:17Z</time>
      </trkpt>
      <trkpt lat="43.41995" lon="5.8529">
        <ele>336.12</ele>
        <time>2019-01-27T09:22:18Z</time>
      </trkpt>
      <trkpt lat="43.41989" lon="5.85285">
        <ele>336.12</ele>
        <time>2019-01-27T09:22:19Z</time>
      </trkpt>
      <trkpt lat="43.41969" lon="5.85268">
        <ele>334.68</ele>
        <time>2019-01-27T09:22:22Z</time>
      </trkpt>
      <trkpt lat="43.41848" lon="5.85169">
        <ele>332.27</ele>
        <time>2019-01-27T09:22:42Z</time>
      </trkpt>
      <trkpt lat="43.41792" lon="5.85119">
        <ele>333.23</ele>
        <time>2019-01-27T09:22:55Z</time>
      </trkpt>
      <trkpt lat="43.4177" lon="5.85082">
        <ele>336.6</ele>
        <time>2019-01-27T09:23:05Z</time>
      </trkpt>
      <trkpt lat="43.41735" lon="5.85025">
        <ele>339.48</ele>
        <time>2019-01-27T09:23:22Z</time>
      </trkpt>
      <trkpt lat="43.41703" lon="5.84999">
        <ele>342.37</ele>
        <time>2019-01-27T09:23:33Z</time>
      </trkpt>
      <trkpt lat="43.41652" lon="5.8498">
        <ele>345.73</ele>
        <time>2019-01-27T09:23:50Z</time>
      </trkpt>
      <trkpt lat="43.41593" lon="5.84986">
        <ele>346.69</ele>
        <time>2019-01-27T09:24:08Z</time>
      </trkpt>
      <trkpt lat="43.41533" lon="5.84976">
        <ele>346.69</ele>
        <time>2019-01-27T09:24:23Z</time>
      </trkpt>
      <trkpt lat="43.41464" lon="5.84959">
        <ele>344.77</ele>
        <time>2019-01-27T09:24:37Z</time>
      </trkpt>
      <trkpt lat="43.41459" lon="5.84956">
        <ele>344.77</ele>
        <time>2019-01-27T09:24:38Z</time>
      </trkpt>
      <trkpt lat="43.41455" lon="5.84954">
        <ele>344.77</ele>
        <time>2019-01-27T09:24:39Z</time>
      </trkpt>
      <trkpt lat="43.4145" lon="5.8495">
        <ele>344.77</ele>
        <time>2019-01-27T09:24:40Z</time>
      </trkpt>
      <trkpt lat="43.41446" lon="5.84947">
        <ele>344.77</ele>
        <time>2019-01-27T09:24:41Z</time>
      </trkpt>
      <trkpt lat="43.41421" lon="5.84916">
        <ele>345.73</ele>
        <time>2019-01-27T09:24:49Z</time>
      </trkpt>
      <trkpt lat="43.41369" lon="5.84853">
        <ele>344.29</ele>
        <time>2019-01-27T09:25:05Z</time>
      </trkpt>
      <trkpt lat="43.41306" lon="5.8475">
        <ele>340.92</ele>
        <time>2019-01-27T09:25:23Z</time>
      </trkpt>
      <trkpt lat="43.41302" lon="5.84743">
        <ele>340.92</ele>
        <time>2019-01-27T09:25:24Z</time>
      </trkpt>
      <trkpt lat="43.4124" lon="5.8462">
        <ele>338.04</ele>
        <time>2019-01-27T09:25:42Z</time>
      </trkpt>
      <trkpt lat="43.41205" lon="5.84555">
        <ele>334.68</ele>
        <time>2019-01-27T09:25:52Z</time>
      </trkpt>
      <trkpt lat="43.41136" lon="5.84482">
        <ele>332.27</ele>
        <time>2019-01-27T09:26:07Z</time>
      </trkpt>
      <trkpt lat="43.4106" lon="5.8444">
        <ele>330.83</ele>
        <time>2019-01-27T09:26:21Z</time>
      </trkpt>
      <trkpt lat="43.41003" lon="5.84397">
        <ele>332.75</ele>
        <time>2019-01-27T09:26:35Z</time>
      </trkpt>
      <trkpt lat="43.40961" lon="5.84357">
        <ele>336.12</ele>
        <time>2019-01-27T09:26:48Z</time>
      </trkpt>
      <trkpt lat="43.40906" lon="5.84327">
        <ele>337.56</ele>
        <time>2019-01-27T09:27:04Z</time>
      </trkpt>
      <trkpt lat="43.40843" lon="5.8431">
        <ele>339</ele>
        <time>2019-01-27T09:27:22Z</time>
      </trkpt>
      <trkpt lat="43.40799" lon="5.84326">
        <ele>339</ele>
        <time>2019-01-27T09:27:33Z</time>
      </trkpt>
      <trkpt lat="43.40739" lon="5.84391">
        <ele>335.64</ele>
        <time>2019-01-27T09:27:46Z</time>
      </trkpt>
      <trkpt lat="43.40713" lon="5.84413">
        <ele>334.2</ele>
        <time>2019-01-27T09:27:50Z</time>
      </trkpt>
      <trkpt lat="43.40694" lon="5.84434">
        <ele>333.71</ele>
        <time>2019-01-27T09:27:53Z</time>
      </trkpt>
      <trkpt lat="43.4069" lon="5.84442">
        <ele>332.75</ele>
        <time>2019-01-27T09:27:54Z</time>
      </trkpt>
      <trkpt lat="43.40685" lon="5.84452">
        <ele>331.79</ele>
        <time>2019-01-27T09:27:55Z</time>
      </trkpt>
      <trkpt lat="43.40681" lon="5.84462">
        <ele>331.31</ele>
        <time>2019-01-27T09:27:56Z</time>
      </trkpt>
      <trkpt lat="43.40678" lon="5.84473">
        <ele>330.83</ele>
        <time>2019-01-27T09:27:57Z</time>
      </trkpt>
      <trkpt lat="43.40675" lon="5.84484">
        <ele>330.83</ele>
        <time>2019-01-27T09:27:58Z</time>
      </trkpt>
      <trkpt lat="43.40668" lon="5.84506">
        <ele>329.39</ele>
        <time>2019-01-27T09:28:00Z</time>
      </trkpt>
      <trkpt lat="43.40664" lon="5.84516">
        <ele>328.91</ele>
        <time>2019-01-27T09:28:01Z</time>
      </trkpt>
      <trkpt lat="43.40659" lon="5.84526">
        <ele>328.43</ele>
        <time>2019-01-27T09:28:02Z</time>
      </trkpt>
      <trkpt lat="43.40653" lon="5.84534">
        <ele>328.43</ele>
        <time>2019-01-27T09:28:03Z</time>
      </trkpt>
      <trkpt lat="43.40647" lon="5.84543">
        <ele>328.43</ele>
        <time>2019-01-27T09:28:04Z</time>
      </trkpt>
      <trkpt lat="43.40641" lon="5.8455">
        <ele>328.43</ele>
        <time>2019-01-27T09:28:05Z</time>
      </trkpt>
      <trkpt lat="43.40614" lon="5.84588">
        <ele>327.95</ele>
        <time>2019-01-27T09:28:10Z</time>
      </trkpt>
      <trkpt lat="43.4061" lon="5.84596">
        <ele>327.95</ele>
        <time>2019-01-27T09:28:11Z</time>
      </trkpt>
      <trkpt lat="43.4056" lon="5.84688">
        <ele>325.06</ele>
        <time>2019-01-27T09:28:23Z</time>
      </trkpt>
      <trkpt lat="43.40556" lon="5.84696">
        <ele>325.06</ele>
        <time>2019-01-27T09:28:24Z</time>
      </trkpt>
      <trkpt lat="43.40552" lon="5.84705">
        <ele>325.06</ele>
        <time>2019-01-27T09:28:25Z</time>
      </trkpt>
      <trkpt lat="43.40533" lon="5.84753">
        <ele>322.66</ele>
        <time>2019-01-27T09:28:30Z</time>
      </trkpt>
      <trkpt lat="43.40527" lon="5.84761">
        <ele>321.7</ele>
        <time>2019-01-27T09:28:31Z</time>
      </trkpt>
      <trkpt lat="43.4052" lon="5.84767">
        <ele>321.7</ele>
        <time>2019-01-27T09:28:32Z</time>
      </trkpt>
      <trkpt lat="43.40513" lon="5.84771">
        <ele>321.7</ele>
        <time>2019-01-27T09:28:33Z</time>
      </trkpt>
      <trkpt lat="43.40506" lon="5.84773">
        <ele>321.7</ele>
        <time>2019-01-27T09:28:34Z</time>
      </trkpt>
      <trkpt lat="43.40498" lon="5.84771">
        <ele>321.7</ele>
        <time>2019-01-27T09:28:35Z</time>
      </trkpt>
      <trkpt lat="43.40491" lon="5.84767">
        <ele>321.7</ele>
        <time>2019-01-27T09:28:36Z</time>
      </trkpt>
      <trkpt lat="43.40485" lon="5.84763">
        <ele>321.7</ele>
        <time>2019-01-27T09:28:37Z</time>
      </trkpt>
      <trkpt lat="43.40473" lon="5.84756">
        <ele>322.18</ele>
        <time>2019-01-27T09:28:39Z</time>
      </trkpt>
      <trkpt lat="43.40467" lon="5.84754">
        <ele>322.18</ele>
        <time>2019-01-27T09:28:40Z</time>
      </trkpt>
      <trkpt lat="43.40461" lon="5.84752">
        <ele>322.18</ele>
        <time>2019-01-27T09:28:41Z</time>
      </trkpt>
      <trkpt lat="43.4038" lon="5.84753">
        <ele>322.18</ele>
        <time>2019-01-27T09:28:57Z</time>
      </trkpt>
      <trkpt lat="43.40295" lon="5.84759">
        <ele>324.58</ele>
        <time>2019-01-27T09:29:17Z</time>
      </trkpt>
      <trkpt lat="43.40237" lon="5.84755">
        <ele>327.95</ele>
        <time>2019-01-27T09:29:33Z</time>
      </trkpt>
      <trkpt lat="43.40181" lon="5.8475">
        <ele>331.31</ele>
        <time>2019-01-27T09:29:51Z</time>
      </trkpt>
      <trkpt lat="43.40137" lon="5.84745">
        <ele>333.71</ele>
        <time>2019-01-27T09:30:07Z</time>
      </trkpt>
      <trkpt lat="43.40097" lon="5.84742">
        <ele>337.08</ele>
        <time>2019-01-27T09:30:21Z</time>
      </trkpt>
      <trkpt lat="43.4005" lon="5.84737">
        <ele>340.44</ele>
        <time>2019-01-27T09:30:37Z</time>
      </trkpt>
      <trkpt lat="43.40009" lon="5.8473">
        <ele>343.81</ele>
        <time>2019-01-27T09:30:51Z</time>
      </trkpt>
      <trkpt lat="43.39976" lon="5.84746">
        <ele>345.73</ele>
        <time>2019-01-27T09:31:04Z</time>
      </trkpt>
      <trkpt lat="43.39944" lon="5.84798">
        <ele>347.65</ele>
        <time>2019-01-27T09:31:19Z</time>
      </trkpt>
      <trkpt lat="43.399" lon="5.84865">
        <ele>349.58</ele>
        <time>2019-01-27T09:31:36Z</time>
      </trkpt>
      <trkpt lat="43.39854" lon="5.84926">
        <ele>350.54</ele>
        <time>2019-01-27T09:31:53Z</time>
      </trkpt>
      <trkpt lat="43.39809" lon="5.84962">
        <ele>352.46</ele>
        <time>2019-01-27T09:32:08Z</time>
      </trkpt>
      <trkpt lat="43.39756" lon="5.84988">
        <ele>354.86</ele>
        <time>2019-01-27T09:32:25Z</time>
      </trkpt>
      <trkpt lat="43.39693" lon="5.85">
        <ele>356.79</ele>
        <time>2019-01-27T09:32:42Z</time>
      </trkpt>
      <trkpt lat="43.39652" lon="5.85035">
        <ele>356.79</ele>
        <time>2019-01-27T09:32:55Z</time>
      </trkpt>
      <trkpt lat="43.39609" lon="5.85079">
        <ele>355.34</ele>
        <time>2019-01-27T09:33:07Z</time>
      </trkpt>
      <trkpt lat="43.39599" lon="5.85088">
        <ele>355.83</ele>
        <time>2019-01-27T09:33:10Z</time>
      </trkpt>
      <trkpt lat="43.39587" lon="5.85097">
        <ele>355.34</ele>
        <time>2019-01-27T09:33:13Z</time>
      </trkpt>
      <trkpt lat="43.39511" lon="5.85114">
        <ele>354.38</ele>
        <time>2019-01-27T09:33:26Z</time>
      </trkpt>
      <trkpt lat="43.39457" lon="5.85108">
        <ele>357.27</ele>
        <time>2019-01-27T09:33:38Z</time>
      </trkpt>
      <trkpt lat="43.39428" lon="5.85107">
        <ele>357.75</ele>
        <time>2019-01-27T09:33:48Z</time>
      </trkpt>
      <trkpt lat="43.39392" lon="5.85102">
        <ele>357.75</ele>
        <time>2019-01-27T09:34:01Z</time>
      </trkpt>
      <trkpt lat="43.39376" lon="5.851">
        <ele>357.75</ele>
        <time>2019-01-27T09:34:11Z</time>
      </trkpt>
      <trkpt lat="43.39373" lon="5.851">
        <ele>357.75</ele>
        <time>2019-01-27T09:34:25Z</time>
      </trkpt>
      <trkpt lat="43.39371" lon="5.85102">
        <ele>357.75</ele>
        <time>2019-01-27T09:34:45Z</time>
      </trkpt>
      <trkpt lat="43.3937" lon="5.85103">
        <ele>357.75</ele>
        <time>2019-01-27T09:34:46Z</time>
      </trkpt>
      <trkpt lat="43.3937" lon="5.85104">
        <ele>357.75</ele>
        <time>2019-01-27T09:34:47Z</time>
      </trkpt>
      <trkpt lat="43.39369" lon="5.85106">
        <ele>357.75</ele>
        <time>2019-01-27T09:34:48Z</time>
      </trkpt>
      <trkpt lat="43.39369" lon="5.85108">
        <ele>357.75</ele>
        <time>2019-01-27T09:34:49Z</time>
      </trkpt>
      <trkpt lat="43.3937" lon="5.85109">
        <ele>357.75</ele>
        <time>2019-01-27T09:34:50Z</time>
      </trkpt>
      <trkpt lat="43.39371" lon="5.85109">
        <ele>357.75</ele>
        <time>2019-01-27T09:34:52Z</time>
      </trkpt>
      <trkpt lat="43.39372" lon="5.85107">
        <ele>357.75</ele>
        <time>2019-01-27T09:34:53Z</time>
      </trkpt>
      <trkpt lat="43.39372" lon="5.85103">
        <ele>357.75</ele>
        <time>2019-01-27T09:34:56Z</time>
      </trkpt>
      <trkpt lat="43.39376" lon="5.85103">
        <ele>357.75</ele>
        <time>2019-01-27T09:35:04Z</time>
      </trkpt>
      <trkpt lat="43.39375" lon="5.85104">
        <ele>357.75</ele>
        <time>2019-01-27T09:35:05Z</time>
      </trkpt>
      <trkpt lat="43.39374" lon="5.85104">
        <ele>357.75</ele>
        <time>2019-01-27T09:35:06Z</time>
      </trkpt>
      <trkpt lat="43.39373" lon="5.85103">
        <ele>357.75</ele>
        <time>2019-01-27T09:35:07Z</time>
      </trkpt>
      <trkpt lat="43.39373" lon="5.85102">
        <ele>357.75</ele>
        <time>2019-01-27T09:35:08Z</time>
      </trkpt>
      <trkpt lat="43.39371" lon="5.851">
        <ele>357.75</ele>
        <time>2019-01-27T09:35:19Z</time>
      </trkpt>
      <trkpt lat="43.3937" lon="5.85102">
        <ele>357.75</ele>
        <time>2019-01-27T09:35:22Z</time>
      </trkpt>
      <trkpt lat="43.39368" lon="5.85104">
        <ele>357.75</ele>
        <time>2019-01-27T09:35:23Z</time>
      </trkpt>
      <trkpt lat="43.39366" lon="5.85104">
        <ele>357.75</ele>
        <time>2019-01-27T09:35:24Z</time>
      </trkpt>
      <trkpt lat="43.39364" lon="5.85105">
        <ele>357.75</ele>
        <time>2019-01-27T09:35:25Z</time>
      </trkpt>
      <trkpt lat="43.39363" lon="5.85104">
        <ele>357.75</ele>
        <time>2019-01-27T09:35:26Z</time>
      </trkpt>
      <trkpt lat="43.39361" lon="5.85104">
        <ele>357.75</ele>
        <time>2019-01-27T09:35:27Z</time>
      </trkpt>
      <trkpt lat="43.39327" lon="5.85097">
        <ele>358.23</ele>
        <time>2019-01-27T09:35:43Z</time>
      </trkpt>
      <trkpt lat="43.39294" lon="5.85095">
        <ele>359.19</ele>
        <time>2019-01-27T09:35:57Z</time>
      </trkpt>
      <trkpt lat="43.39276" lon="5.85109">
        <ele>361.11</ele>
        <time>2019-01-27T09:36:12Z</time>
      </trkpt>
      <trkpt lat="43.39273" lon="5.85112">
        <ele>361.11</ele>
        <time>2019-01-27T09:36:14Z</time>
      </trkpt>
      <trkpt lat="43.39268" lon="5.85113">
        <ele>361.11</ele>
        <time>2019-01-27T09:36:20Z</time>
      </trkpt>
      <trkpt lat="43.39265" lon="5.85113">
        <ele>361.11</ele>
        <time>2019-01-27T09:36:21Z</time>
      </trkpt>
      <trkpt lat="43.39217" lon="5.85117">
        <ele>364</ele>
        <time>2019-01-27T09:36:41Z</time>
      </trkpt>
      <trkpt lat="43.39193" lon="5.85121">
        <ele>365.44</ele>
        <time>2019-01-27T09:36:53Z</time>
      </trkpt>
      <trkpt lat="43.39191" lon="5.85119">
        <ele>365.44</ele>
        <time>2019-01-27T09:36:54Z</time>
      </trkpt>
      <trkpt lat="43.39189" lon="5.85118">
        <ele>365.44</ele>
        <time>2019-01-27T09:36:55Z</time>
      </trkpt>
      <trkpt lat="43.39182" lon="5.85118">
        <ele>366.4</ele>
        <time>2019-01-27T09:37:00Z</time>
      </trkpt>
      <trkpt lat="43.39145" lon="5.85119">
        <ele>368.32</ele>
        <time>2019-01-27T09:37:15Z</time>
      </trkpt>
      <trkpt lat="43.39106" lon="5.85127">
        <ele>371.21</ele>
        <time>2019-01-27T09:37:35Z</time>
      </trkpt>
      <trkpt lat="43.39072" lon="5.85133">
        <ele>373.61</ele>
        <time>2019-01-27T09:37:51Z</time>
      </trkpt>
      <trkpt lat="43.39037" lon="5.85134">
        <ele>376.49</ele>
        <time>2019-01-27T09:38:08Z</time>
      </trkpt>
      <trkpt lat="43.39009" lon="5.85134">
        <ele>379.38</ele>
        <time>2019-01-27T09:38:22Z</time>
      </trkpt>
      <trkpt lat="43.38973" lon="5.8513">
        <ele>382.26</ele>
        <time>2019-01-27T09:38:40Z</time>
      </trkpt>
      <trkpt lat="43.38944" lon="5.85121">
        <ele>385.15</ele>
        <time>2019-01-27T09:38:57Z</time>
      </trkpt>
      <trkpt lat="43.38918" lon="5.8512">
        <ele>387.55</ele>
        <time>2019-01-27T09:39:13Z</time>
      </trkpt>
      <trkpt lat="43.38891" lon="5.85125">
        <ele>390.91</ele>
        <time>2019-01-27T09:39:29Z</time>
      </trkpt>
      <trkpt lat="43.38875" lon="5.85129">
        <ele>393.8</ele>
        <time>2019-01-27T09:39:38Z</time>
      </trkpt>
      <trkpt lat="43.38851" lon="5.85141">
        <ele>395.72</ele>
        <time>2019-01-27T09:39:53Z</time>
      </trkpt>
      <trkpt lat="43.38848" lon="5.85142">
        <ele>395.72</ele>
        <time>2019-01-27T09:40:16Z</time>
      </trkpt>
      <trkpt lat="43.38848" lon="5.85146">
        <ele>395.72</ele>
        <time>2019-01-27T09:40:29Z</time>
      </trkpt>
      <trkpt lat="43.3885" lon="5.8516">
        <ele>396.2</ele>
        <time>2019-01-27T09:40:43Z</time>
      </trkpt>
      <trkpt lat="43.3885" lon="5.85161">
        <ele>396.2</ele>
        <time>2019-01-27T09:40:44Z</time>
      </trkpt>
      <trkpt lat="43.3885" lon="5.85187">
        <ele>397.64</ele>
        <time>2019-01-27T09:41:04Z</time>
      </trkpt>
      <trkpt lat="43.38846" lon="5.85215">
        <ele>400.53</ele>
        <time>2019-01-27T09:41:24Z</time>
      </trkpt>
      <trkpt lat="43.38843" lon="5.85243">
        <ele>402.45</ele>
        <time>2019-01-27T09:41:43Z</time>
      </trkpt>
      <trkpt lat="43.38842" lon="5.85272">
        <ele>403.41</ele>
        <time>2019-01-27T09:42:01Z</time>
      </trkpt>
      <trkpt lat="43.3884" lon="5.85303">
        <ele>405.33</ele>
        <time>2019-01-27T09:42:22Z</time>
      </trkpt>
      <trkpt lat="43.38838" lon="5.85312">
        <ele>405.81</ele>
        <time>2019-01-27T09:42:29Z</time>
      </trkpt>
      <trkpt lat="43.38837" lon="5.85315">
        <ele>406.29</ele>
        <time>2019-01-27T09:42:32Z</time>
      </trkpt>
      <trkpt lat="43.38837" lon="5.85317">
        <ele>406.29</ele>
        <time>2019-01-27T09:42:33Z</time>
      </trkpt>
      <trkpt lat="43.38837" lon="5.85319">
        <ele>406.29</ele>
        <time>2019-01-27T09:42:34Z</time>
      </trkpt>
      <trkpt lat="43.38836" lon="5.8532">
        <ele>406.29</ele>
        <time>2019-01-27T09:42:35Z</time>
      </trkpt>
      <trkpt lat="43.38833" lon="5.85345">
        <ele>408.22</ele>
        <time>2019-01-27T09:42:54Z</time>
      </trkpt>
      <trkpt lat="43.38833" lon="5.85347">
        <ele>408.22</ele>
        <time>2019-01-27T09:42:55Z</time>
      </trkpt>
      <trkpt lat="43.38826" lon="5.85368">
        <ele>409.18</ele>
        <time>2019-01-27T09:43:11Z</time>
      </trkpt>
      <trkpt lat="43.38819" lon="5.85387">
        <ele>410.62</ele>
        <time>2019-01-27T09:43:28Z</time>
      </trkpt>
      <trkpt lat="43.38809" lon="5.85405">
        <ele>411.58</ele>
        <time>2019-01-27T09:43:45Z</time>
      </trkpt>
      <trkpt lat="43.38802" lon="5.85415">
        <ele>412.06</ele>
        <time>2019-01-27T09:43:54Z</time>
      </trkpt>
      <trkpt lat="43.38802" lon="5.85416">
        <ele>413.02</ele>
        <time>2019-01-27T09:43:55Z</time>
      </trkpt>
      <trkpt lat="43.38797" lon="5.8542">
        <ele>413.5</ele>
        <time>2019-01-27T09:44:12Z</time>
      </trkpt>
      <trkpt lat="43.38786" lon="5.85431">
        <ele>413.98</ele>
        <time>2019-01-27T09:44:30Z</time>
      </trkpt>
      <trkpt lat="43.38771" lon="5.85444">
        <ele>415.91</ele>
        <time>2019-01-27T09:44:49Z</time>
      </trkpt>
      <trkpt lat="43.38762" lon="5.85454">
        <ele>416.87</ele>
        <time>2019-01-27T09:45:06Z</time>
      </trkpt>
      <trkpt lat="43.38737" lon="5.8547">
        <ele>418.79</ele>
        <time>2019-01-27T09:45:22Z</time>
      </trkpt>
      <trkpt lat="43.38703" lon="5.85483">
        <ele>421.68</ele>
        <time>2019-01-27T09:45:40Z</time>
      </trkpt>
      <trkpt lat="43.38682" lon="5.8549">
        <ele>425.04</ele>
        <time>2019-01-27T09:45:51Z</time>
      </trkpt>
      <trkpt lat="43.38655" lon="5.85503">
        <ele>426.96</ele>
        <time>2019-01-27T09:46:08Z</time>
      </trkpt>
      <trkpt lat="43.3863" lon="5.85518">
        <ele>428.4</ele>
        <time>2019-01-27T09:46:23Z</time>
      </trkpt>
      <trkpt lat="43.38601" lon="5.85547">
        <ele>431.29</ele>
        <time>2019-01-27T09:46:41Z</time>
      </trkpt>
      <trkpt lat="43.38576" lon="5.85572">
        <ele>435.13</ele>
        <time>2019-01-27T09:46:56Z</time>
      </trkpt>
      <trkpt lat="43.38543" lon="5.85598">
        <ele>437.06</ele>
        <time>2019-01-27T09:47:13Z</time>
      </trkpt>
      <trkpt lat="43.38507" lon="5.85623">
        <ele>438.5</ele>
        <time>2019-01-27T09:47:33Z</time>
      </trkpt>
      <trkpt lat="43.38474" lon="5.85642">
        <ele>439.46</ele>
        <time>2019-01-27T09:47:50Z</time>
      </trkpt>
      <trkpt lat="43.38444" lon="5.85629">
        <ele>441.86</ele>
        <time>2019-01-27T09:48:06Z</time>
      </trkpt>
      <trkpt lat="43.38409" lon="5.85619">
        <ele>443.31</ele>
        <time>2019-01-27T09:48:23Z</time>
      </trkpt>
      <trkpt lat="43.38376" lon="5.85608">
        <ele>446.67</ele>
        <time>2019-01-27T09:48:38Z</time>
      </trkpt>
      <trkpt lat="43.38347" lon="5.85612">
        <ele>449.55</ele>
        <time>2019-01-27T09:48:53Z</time>
      </trkpt>
      <trkpt lat="43.38317" lon="5.85625">
        <ele>451</ele>
        <time>2019-01-27T09:49:10Z</time>
      </trkpt>
      <trkpt lat="43.38286" lon="5.8564">
        <ele>453.88</ele>
        <time>2019-01-27T09:49:27Z</time>
      </trkpt>
      <trkpt lat="43.38272" lon="5.85658">
        <ele>456.28</ele>
        <time>2019-01-27T09:49:39Z</time>
      </trkpt>
      <trkpt lat="43.38262" lon="5.8569">
        <ele>458.69</ele>
        <time>2019-01-27T09:49:54Z</time>
      </trkpt>
      <trkpt lat="43.38248" lon="5.85724">
        <ele>461.09</ele>
        <time>2019-01-27T09:50:09Z</time>
      </trkpt>
      <trkpt lat="43.38234" lon="5.85756">
        <ele>463.49</ele>
        <time>2019-01-27T09:50:25Z</time>
      </trkpt>
      <trkpt lat="43.38221" lon="5.85789">
        <ele>465.9</ele>
        <time>2019-01-27T09:50:42Z</time>
      </trkpt>
      <trkpt lat="43.38206" lon="5.85829">
        <ele>468.78</ele>
        <time>2019-01-27T09:51:00Z</time>
      </trkpt>
      <trkpt lat="43.38187" lon="5.8587">
        <ele>471.66</ele>
        <time>2019-01-27T09:51:17Z</time>
      </trkpt>
      <trkpt lat="43.38167" lon="5.85905">
        <ele>474.07</ele>
        <time>2019-01-27T09:51:35Z</time>
      </trkpt>
      <trkpt lat="43.38141" lon="5.85935">
        <ele>476.95</ele>
        <time>2019-01-27T09:51:52Z</time>
      </trkpt>
      <trkpt lat="43.38124" lon="5.85972">
        <ele>479.84</ele>
        <time>2019-01-27T09:52:08Z</time>
      </trkpt>
      <trkpt lat="43.381" lon="5.8598">
        <ele>479.84</ele>
        <time>2019-01-27T09:52:21Z</time>
      </trkpt>
      <trkpt lat="43.38082" lon="5.85987">
        <ele>481.28</ele>
        <time>2019-01-27T09:52:37Z</time>
      </trkpt>
      <trkpt lat="43.38067" lon="5.85996">
        <ele>482.72</ele>
        <time>2019-01-27T09:52:53Z</time>
      </trkpt>
      <trkpt lat="43.38048" lon="5.86001">
        <ele>485.12</ele>
        <time>2019-01-27T09:53:11Z</time>
      </trkpt>
      <trkpt lat="43.38028" lon="5.86001">
        <ele>486.08</ele>
        <time>2019-01-27T09:53:30Z</time>
      </trkpt>
      <trkpt lat="43.38013" lon="5.86002">
        <ele>488.01</ele>
        <time>2019-01-27T09:53:45Z</time>
      </trkpt>
      <trkpt lat="43.37995" lon="5.86004">
        <ele>488.97</ele>
        <time>2019-01-27T09:54:02Z</time>
      </trkpt>
      <trkpt lat="43.37975" lon="5.86006">
        <ele>489.93</ele>
        <time>2019-01-27T09:54:21Z</time>
      </trkpt>
      <trkpt lat="43.37955" lon="5.86012">
        <ele>491.85</ele>
        <time>2019-01-27T09:54:40Z</time>
      </trkpt>
      <trkpt lat="43.37936" lon="5.86009">
        <ele>494.26</ele>
        <time>2019-01-27T09:54:58Z</time>
      </trkpt>
      <trkpt lat="43.37917" lon="5.85995">
        <ele>494.74</ele>
        <time>2019-01-27T09:55:18Z</time>
      </trkpt>
      <trkpt lat="43.37902" lon="5.85978">
        <ele>495.7</ele>
        <time>2019-01-27T09:55:37Z</time>
      </trkpt>
      <trkpt lat="43.37887" lon="5.85958">
        <ele>497.62</ele>
        <time>2019-01-27T09:55:56Z</time>
      </trkpt>
      <trkpt lat="43.37875" lon="5.85947">
        <ele>498.1</ele>
        <time>2019-01-27T09:56:11Z</time>
      </trkpt>
      <trkpt lat="43.37863" lon="5.85924">
        <ele>500.02</ele>
        <time>2019-01-27T09:56:24Z</time>
      </trkpt>
      <trkpt lat="43.37848" lon="5.8589">
        <ele>501.95</ele>
        <time>2019-01-27T09:56:42Z</time>
      </trkpt>
      <trkpt lat="43.37832" lon="5.8586">
        <ele>503.39</ele>
        <time>2019-01-27T09:56:59Z</time>
      </trkpt>
      <trkpt lat="43.37817" lon="5.85827">
        <ele>506.27</ele>
        <time>2019-01-27T09:57:16Z</time>
      </trkpt>
      <trkpt lat="43.37804" lon="5.85797">
        <ele>507.71</ele>
        <time>2019-01-27T09:57:30Z</time>
      </trkpt>
      <trkpt lat="43.37789" lon="5.85755">
        <ele>510.6</ele>
        <time>2019-01-27T09:57:47Z</time>
      </trkpt>
      <trkpt lat="43.37779" lon="5.85709">
        <ele>512.04</ele>
        <time>2019-01-27T09:58:05Z</time>
      </trkpt>
      <trkpt lat="43.37764" lon="5.85671">
        <ele>513.48</ele>
        <time>2019-01-27T09:58:21Z</time>
      </trkpt>
      <trkpt lat="43.37736" lon="5.85644">
        <ele>516.37</ele>
        <time>2019-01-27T09:58:37Z</time>
      </trkpt>
      <trkpt lat="43.37732" lon="5.85639">
        <ele>516.37</ele>
        <time>2019-01-27T09:58:40Z</time>
      </trkpt>
      <trkpt lat="43.37731" lon="5.85637">
        <ele>516.37</ele>
        <time>2019-01-27T09:58:41Z</time>
      </trkpt>
      <trkpt lat="43.3773" lon="5.85635">
        <ele>516.85</ele>
        <time>2019-01-27T09:58:42Z</time>
      </trkpt>
      <trkpt lat="43.3773" lon="5.85632">
        <ele>516.85</ele>
        <time>2019-01-27T09:58:43Z</time>
      </trkpt>
      <trkpt lat="43.37729" lon="5.8563">
        <ele>516.85</ele>
        <time>2019-01-27T09:58:44Z</time>
      </trkpt>
      <trkpt lat="43.37728" lon="5.85603">
        <ele>518.29</ele>
        <time>2019-01-27T09:59:00Z</time>
      </trkpt>
      <trkpt lat="43.37726" lon="5.85597">
        <ele>518.29</ele>
        <time>2019-01-27T09:59:13Z</time>
      </trkpt>
      <trkpt lat="43.37725" lon="5.85593">
        <ele>518.29</ele>
        <time>2019-01-27T09:59:16Z</time>
      </trkpt>
      <trkpt lat="43.37723" lon="5.85588">
        <ele>519.73</ele>
        <time>2019-01-27T09:59:21Z</time>
      </trkpt>
      <trkpt lat="43.37723" lon="5.85571">
        <ele>520.69</ele>
        <time>2019-01-27T09:59:37Z</time>
      </trkpt>
      <trkpt lat="43.37732" lon="5.85545">
        <ele>523.58</ele>
        <time>2019-01-27T09:59:53Z</time>
      </trkpt>
      <trkpt lat="43.37742" lon="5.8552">
        <ele>525.98</ele>
        <time>2019-01-27T10:00:08Z</time>
      </trkpt>
      <trkpt lat="43.3775" lon="5.85484">
        <ele>529.34</ele>
        <time>2019-01-27T10:00:25Z</time>
      </trkpt>
      <trkpt lat="43.37753" lon="5.85459">
        <ele>532.23</ele>
        <time>2019-01-27T10:00:38Z</time>
      </trkpt>
      <trkpt lat="43.37753" lon="5.85437">
        <ele>532.23</ele>
        <time>2019-01-27T10:00:46Z</time>
      </trkpt>
      <trkpt lat="43.37749" lon="5.85416">
        <ele>534.15</ele>
        <time>2019-01-27T10:01:03Z</time>
      </trkpt>
      <trkpt lat="43.37742" lon="5.85395">
        <ele>536.07</ele>
        <time>2019-01-27T10:01:20Z</time>
      </trkpt>
      <trkpt lat="43.37737" lon="5.85376">
        <ele>538.48</ele>
        <time>2019-01-27T10:01:37Z</time>
      </trkpt>
      <trkpt lat="43.37742" lon="5.85359">
        <ele>540.4</ele>
        <time>2019-01-27T10:01:53Z</time>
      </trkpt>
      <trkpt lat="43.37747" lon="5.85339">
        <ele>542.8</ele>
        <time>2019-01-27T10:02:10Z</time>
      </trkpt>
      <trkpt lat="43.3775" lon="5.85318">
        <ele>546.17</ele>
        <time>2019-01-27T10:02:29Z</time>
      </trkpt>
      <trkpt lat="43.37753" lon="5.85304">
        <ele>547.61</ele>
        <time>2019-01-27T10:02:41Z</time>
      </trkpt>
      <trkpt lat="43.37754" lon="5.85298">
        <ele>549.05</ele>
        <time>2019-01-27T10:02:46Z</time>
      </trkpt>
      <trkpt lat="43.3775" lon="5.85288">
        <ele>550.01</ele>
        <time>2019-01-27T10:02:55Z</time>
      </trkpt>
      <trkpt lat="43.37749" lon="5.85287">
        <ele>550.01</ele>
        <time>2019-01-27T10:02:56Z</time>
      </trkpt>
      <trkpt lat="43.3774" lon="5.85288">
        <ele>551.93</ele>
        <time>2019-01-27T10:03:09Z</time>
      </trkpt>
      <trkpt lat="43.37725" lon="5.85292">
        <ele>553.38</ele>
        <time>2019-01-27T10:03:24Z</time>
      </trkpt>
      <trkpt lat="43.37708" lon="5.85278">
        <ele>555.3</ele>
        <time>2019-01-27T10:03:42Z</time>
      </trkpt>
      <trkpt lat="43.377" lon="5.85261">
        <ele>556.26</ele>
        <time>2019-01-27T10:03:57Z</time>
      </trkpt>
      <trkpt lat="43.37694" lon="5.85243">
        <ele>557.7</ele>
        <time>2019-01-27T10:04:13Z</time>
      </trkpt>
      <trkpt lat="43.37699" lon="5.85225">
        <ele>560.11</ele>
        <time>2019-01-27T10:04:32Z</time>
      </trkpt>
      <trkpt lat="43.37704" lon="5.85204">
        <ele>562.03</ele>
        <time>2019-01-27T10:04:50Z</time>
      </trkpt>
      <trkpt lat="43.37714" lon="5.85186">
        <ele>563.95</ele>
        <time>2019-01-27T10:05:07Z</time>
      </trkpt>
      <trkpt lat="43.3772" lon="5.85179">
        <ele>564.91</ele>
        <time>2019-01-27T10:05:15Z</time>
      </trkpt>
      <trkpt lat="43.37731" lon="5.85169">
        <ele>566.35</ele>
        <time>2019-01-27T10:05:30Z</time>
      </trkpt>
      <trkpt lat="43.37733" lon="5.85168">
        <ele>566.35</ele>
        <time>2019-01-27T10:05:32Z</time>
      </trkpt>
      <trkpt lat="43.3775" lon="5.85161">
        <ele>568.76</ele>
        <time>2019-01-27T10:05:50Z</time>
      </trkpt>
      <trkpt lat="43.37768" lon="5.85159">
        <ele>571.16</ele>
        <time>2019-01-27T10:06:09Z</time>
      </trkpt>
      <trkpt lat="43.37778" lon="5.85157">
        <ele>572.12</ele>
        <time>2019-01-27T10:06:23Z</time>
      </trkpt>
      <trkpt lat="43.37799" lon="5.85152">
        <ele>574.53</ele>
        <time>2019-01-27T10:06:46Z</time>
      </trkpt>
      <trkpt lat="43.37811" lon="5.85146">
        <ele>577.41</ele>
        <time>2019-01-27T10:07:03Z</time>
      </trkpt>
      <trkpt lat="43.37823" lon="5.85141">
        <ele>579.81</ele>
        <time>2019-01-27T10:07:22Z</time>
      </trkpt>
      <trkpt lat="43.3784" lon="5.85136">
        <ele>582.22</ele>
        <time>2019-01-27T10:07:40Z</time>
      </trkpt>
      <trkpt lat="43.37859" lon="5.85128">
        <ele>585.58</ele>
        <time>2019-01-27T10:08:02Z</time>
      </trkpt>
      <trkpt lat="43.37872" lon="5.85118">
        <ele>587.5</ele>
        <time>2019-01-27T10:08:18Z</time>
      </trkpt>
      <trkpt lat="43.37886" lon="5.85112">
        <ele>588.95</ele>
        <time>2019-01-27T10:08:35Z</time>
      </trkpt>
      <trkpt lat="43.37886" lon="5.85112">
        <ele>588.95</ele>
        <time>2019-01-27T10:08:36Z</time>
      </trkpt>
      <trkpt lat="43.37888" lon="5.85112">
        <ele>588.95</ele>
        <time>2019-01-27T10:08:37Z</time>
      </trkpt>
      <trkpt lat="43.37889" lon="5.85112">
        <ele>588.95</ele>
        <time>2019-01-27T10:08:38Z</time>
      </trkpt>
      <trkpt lat="43.37891" lon="5.85112">
        <ele>589.43</ele>
        <time>2019-01-27T10:08:39Z</time>
      </trkpt>
      <trkpt lat="43.37892" lon="5.85112">
        <ele>589.43</ele>
        <time>2019-01-27T10:08:40Z</time>
      </trkpt>
      <trkpt lat="43.37915" lon="5.85118">
        <ele>591.83</ele>
        <time>2019-01-27T10:08:53Z</time>
      </trkpt>
      <trkpt lat="43.3794" lon="5.85109">
        <ele>594.71</ele>
        <time>2019-01-27T10:09:09Z</time>
      </trkpt>
      <trkpt lat="43.37968" lon="5.85097">
        <ele>597.12</ele>
        <time>2019-01-27T10:09:25Z</time>
      </trkpt>
      <trkpt lat="43.37995" lon="5.85085">
        <ele>599.04</ele>
        <time>2019-01-27T10:09:39Z</time>
      </trkpt>
      <trkpt lat="43.37997" lon="5.85085">
        <ele>599.04</ele>
        <time>2019-01-27T10:09:40Z</time>
      </trkpt>
      <trkpt lat="43.37999" lon="5.85086">
        <ele>599.04</ele>
        <time>2019-01-27T10:09:41Z</time>
      </trkpt>
      <trkpt lat="43.38" lon="5.85086">
        <ele>599.04</ele>
        <time>2019-01-27T10:09:42Z</time>
      </trkpt>
      <trkpt lat="43.38002" lon="5.85087">
        <ele>599.04</ele>
        <time>2019-01-27T10:09:43Z</time>
      </trkpt>
      <trkpt lat="43.38004" lon="5.85087">
        <ele>599.04</ele>
        <time>2019-01-27T10:09:44Z</time>
      </trkpt>
      <trkpt lat="43.38006" lon="5.85087">
        <ele>599.04</ele>
        <time>2019-01-27T10:09:45Z</time>
      </trkpt>
      <trkpt lat="43.38008" lon="5.85088">
        <ele>599.04</ele>
        <time>2019-01-27T10:09:46Z</time>
      </trkpt>
      <trkpt lat="43.3801" lon="5.85089">
        <ele>599.52</ele>
        <time>2019-01-27T10:09:47Z</time>
      </trkpt>
      <trkpt lat="43.38041" lon="5.85077">
        <ele>601.44</ele>
        <time>2019-01-27T10:10:01Z</time>
      </trkpt>
      <trkpt lat="43.38073" lon="5.85042">
        <ele>602.88</ele>
        <time>2019-01-27T10:10:18Z</time>
      </trkpt>
      <trkpt lat="43.38107" lon="5.85029">
        <ele>604.33</ele>
        <time>2019-01-27T10:10:36Z</time>
      </trkpt>
      <trkpt lat="43.38114" lon="5.85029">
        <ele>604.33</ele>
        <time>2019-01-27T10:10:42Z</time>
      </trkpt>
      <trkpt lat="43.38115" lon="5.85028">
        <ele>604.33</ele>
        <time>2019-01-27T10:10:43Z</time>
      </trkpt>
      <trkpt lat="43.38116" lon="5.85027">
        <ele>604.33</ele>
        <time>2019-01-27T10:10:44Z</time>
      </trkpt>
      <trkpt lat="43.38118" lon="5.85025">
        <ele>604.33</ele>
        <time>2019-01-27T10:10:45Z</time>
      </trkpt>
      <trkpt lat="43.3812" lon="5.85024">
        <ele>604.33</ele>
        <time>2019-01-27T10:10:46Z</time>
      </trkpt>
      <trkpt lat="43.38122" lon="5.85023">
        <ele>604.33</ele>
        <time>2019-01-27T10:10:47Z</time>
      </trkpt>
      <trkpt lat="43.38148" lon="5.85011">
        <ele>604.33</ele>
        <time>2019-01-27T10:11:04Z</time>
      </trkpt>
      <trkpt lat="43.38156" lon="5.85016">
        <ele>602.4</ele>
        <time>2019-01-27T10:11:16Z</time>
      </trkpt>
      <trkpt lat="43.38155" lon="5.85019">
        <ele>602.4</ele>
        <time>2019-01-27T10:11:18Z</time>
      </trkpt>
      <trkpt lat="43.38157" lon="5.85026">
        <ele>601.92</ele>
        <time>2019-01-27T10:11:21Z</time>
      </trkpt>
      <trkpt lat="43.38153" lon="5.85048">
        <ele>601.44</ele>
        <time>2019-01-27T10:11:28Z</time>
      </trkpt>
      <trkpt lat="43.38141" lon="5.85063">
        <ele>600.96</ele>
        <time>2019-01-27T10:11:37Z</time>
      </trkpt>
      <trkpt lat="43.38139" lon="5.85071">
        <ele>600.48</ele>
        <time>2019-01-27T10:11:40Z</time>
      </trkpt>
      <trkpt lat="43.38159" lon="5.85116">
        <ele>599.04</ele>
        <time>2019-01-27T10:11:52Z</time>
      </trkpt>
      <trkpt lat="43.38169" lon="5.85149">
        <ele>600.48</ele>
        <time>2019-01-27T10:11:59Z</time>
      </trkpt>
      <trkpt lat="43.38181" lon="5.85188">
        <ele>603.36</ele>
        <time>2019-01-27T10:12:08Z</time>
      </trkpt>
      <trkpt lat="43.38182" lon="5.8522">
        <ele>605.29</ele>
        <time>2019-01-27T10:12:18Z</time>
      </trkpt>
      <trkpt lat="43.38184" lon="5.85223">
        <ele>605.29</ele>
        <time>2019-01-27T10:12:19Z</time>
      </trkpt>
      <trkpt lat="43.38186" lon="5.85223">
        <ele>605.29</ele>
        <time>2019-01-27T10:12:20Z</time>
      </trkpt>
      <trkpt lat="43.38189" lon="5.85224">
        <ele>605.77</ele>
        <time>2019-01-27T10:12:21Z</time>
      </trkpt>
      <trkpt lat="43.38191" lon="5.85225">
        <ele>605.77</ele>
        <time>2019-01-27T10:12:22Z</time>
      </trkpt>
      <trkpt lat="43.38194" lon="5.85225">
        <ele>606.73</ele>
        <time>2019-01-27T10:12:23Z</time>
      </trkpt>
      <trkpt lat="43.38196" lon="5.85226">
        <ele>606.73</ele>
        <time>2019-01-27T10:12:24Z</time>
      </trkpt>
      <trkpt lat="43.38198" lon="5.85227">
        <ele>606.73</ele>
        <time>2019-01-27T10:12:25Z</time>
      </trkpt>
      <trkpt lat="43.382" lon="5.85228">
        <ele>607.21</ele>
        <time>2019-01-27T10:12:26Z</time>
      </trkpt>
      <trkpt lat="43.38215" lon="5.85236">
        <ele>609.13</ele>
        <time>2019-01-27T10:12:39Z</time>
      </trkpt>
      <trkpt lat="43.38218" lon="5.8524">
        <ele>609.13</ele>
        <time>2019-01-27T10:12:45Z</time>
      </trkpt>
      <trkpt lat="43.38216" lon="5.8525">
        <ele>609.61</ele>
        <time>2019-01-27T10:12:59Z</time>
      </trkpt>
      <trkpt lat="43.38218" lon="5.85252">
        <ele>609.61</ele>
        <time>2019-01-27T10:13:32Z</time>
      </trkpt>
      <trkpt lat="43.38217" lon="5.85252">
        <ele>609.61</ele>
        <time>2019-01-27T10:14:04Z</time>
      </trkpt>
      <trkpt lat="43.38216" lon="5.85251">
        <ele>609.61</ele>
        <time>2019-01-27T10:14:31Z</time>
      </trkpt>
      <trkpt lat="43.38215" lon="5.85249">
        <ele>609.13</ele>
        <time>2019-01-27T10:15:10Z</time>
      </trkpt>
      <trkpt lat="43.38215" lon="5.85249">
        <ele>607.69</ele>
        <time>2019-01-27T10:15:46Z</time>
      </trkpt>
      <trkpt lat="43.38215" lon="5.85248">
        <ele>607.69</ele>
        <time>2019-01-27T10:16:23Z</time>
      </trkpt>
      <trkpt lat="43.38216" lon="5.85249">
        <ele>607.69</ele>
        <time>2019-01-27T10:16:48Z</time>
      </trkpt>
      <trkpt lat="43.38216" lon="5.8525">
        <ele>607.21</ele>
        <time>2019-01-27T10:17:25Z</time>
      </trkpt>
      <trkpt lat="43.38217" lon="5.85251">
        <ele>607.21</ele>
        <time>2019-01-27T10:18:01Z</time>
      </trkpt>
      <trkpt lat="43.38219" lon="5.85251">
        <ele>607.21</ele>
        <time>2019-01-27T10:18:31Z</time>
      </trkpt>
      <trkpt lat="43.38218" lon="5.8525">
        <ele>607.21</ele>
        <time>2019-01-27T10:18:58Z</time>
      </trkpt>
      <trkpt lat="43.38218" lon="5.85251">
        <ele>606.25</ele>
        <time>2019-01-27T10:19:36Z</time>
      </trkpt>
      <trkpt lat="43.38218" lon="5.85251">
        <ele>607.21</ele>
        <time>2019-01-27T10:20:10Z</time>
      </trkpt>
      <trkpt lat="43.38218" lon="5.8525">
        <ele>607.69</ele>
        <time>2019-01-27T10:20:39Z</time>
      </trkpt>
      <trkpt lat="43.38218" lon="5.85251">
        <ele>606.25</ele>
        <time>2019-01-27T10:21:18Z</time>
      </trkpt>
      <trkpt lat="43.38218" lon="5.85249">
        <ele>606.25</ele>
        <time>2019-01-27T10:21:51Z</time>
      </trkpt>
      <trkpt lat="43.38218" lon="5.8525">
        <ele>605.77</ele>
        <time>2019-01-27T10:22:27Z</time>
      </trkpt>
      <trkpt lat="43.38219" lon="5.8525">
        <ele>605.77</ele>
        <time>2019-01-27T10:23:03Z</time>
      </trkpt>
      <trkpt lat="43.38219" lon="5.85252">
        <ele>605.77</ele>
        <time>2019-01-27T10:23:34Z</time>
      </trkpt>
      <trkpt lat="43.38219" lon="5.85252">
        <ele>605.77</ele>
        <time>2019-01-27T10:23:59Z</time>
      </trkpt>
      <trkpt lat="43.38218" lon="5.85253">
        <ele>606.73</ele>
        <time>2019-01-27T10:24:19Z</time>
      </trkpt>
      <trkpt lat="43.38219" lon="5.85254">
        <ele>607.21</ele>
        <time>2019-01-27T10:24:49Z</time>
      </trkpt>
      <trkpt lat="43.38219" lon="5.85253">
        <ele>607.21</ele>
        <time>2019-01-27T10:25:17Z</time>
      </trkpt>
      <trkpt lat="43.38218" lon="5.85252">
        <ele>606.73</ele>
        <time>2019-01-27T10:25:49Z</time>
      </trkpt>
      <trkpt lat="43.38218" lon="5.85251">
        <ele>606.73</ele>
        <time>2019-01-27T10:26:17Z</time>
      </trkpt>
      <trkpt lat="43.38218" lon="5.8525">
        <ele>606.73</ele>
        <time>2019-01-27T10:26:36Z</time>
      </trkpt>
      <trkpt lat="43.38218" lon="5.85251">
        <ele>605.77</ele>
        <time>2019-01-27T10:27:08Z</time>
      </trkpt>
      <trkpt lat="43.38219" lon="5.85251">
        <ele>606.73</ele>
        <time>2019-01-27T10:27:42Z</time>
      </trkpt>
      <trkpt lat="43.3822" lon="5.85251">
        <ele>606.73</ele>
        <time>2019-01-27T10:28:05Z</time>
      </trkpt>
      <trkpt lat="43.3822" lon="5.85252">
        <ele>606.73</ele>
        <time>2019-01-27T10:28:24Z</time>
      </trkpt>
      <trkpt lat="43.38221" lon="5.85249">
        <ele>606.73</ele>
        <time>2019-01-27T10:28:33Z</time>
      </trkpt>
      <trkpt lat="43.38218" lon="5.85242">
        <ele>606.73</ele>
        <time>2019-01-27T10:28:49Z</time>
      </trkpt>
      <trkpt lat="43.38214" lon="5.85238">
        <ele>605.29</ele>
        <time>2019-01-27T10:28:55Z</time>
      </trkpt>
      <trkpt lat="43.38213" lon="5.85237">
        <ele>604.33</ele>
        <time>2019-01-27T10:28:56Z</time>
      </trkpt>
      <trkpt lat="43.38209" lon="5.85232">
        <ele>603.85</ele>
        <time>2019-01-27T10:28:59Z</time>
      </trkpt>
      <trkpt lat="43.38206" lon="5.85227">
        <ele>603.85</ele>
        <time>2019-01-27T10:29:01Z</time>
      </trkpt>
      <trkpt lat="43.38203" lon="5.85221">
        <ele>602.88</ele>
        <time>2019-01-27T10:29:03Z</time>
      </trkpt>
      <trkpt lat="43.38203" lon="5.85218">
        <ele>602.88</ele>
        <time>2019-01-27T10:29:04Z</time>
      </trkpt>
      <trkpt lat="43.38196" lon="5.852">
        <ele>600</ele>
        <time>2019-01-27T10:29:10Z</time>
      </trkpt>
      <trkpt lat="43.38167" lon="5.85156">
        <ele>596.64</ele>
        <time>2019-01-27T10:29:22Z</time>
      </trkpt>
      <trkpt lat="43.38158" lon="5.85124">
        <ele>597.12</ele>
        <time>2019-01-27T10:29:28Z</time>
      </trkpt>
      <trkpt lat="43.38142" lon="5.85089">
        <ele>598.56</ele>
        <time>2019-01-27T10:29:38Z</time>
      </trkpt>
      <trkpt lat="43.38137" lon="5.85072">
        <ele>598.56</ele>
        <time>2019-01-27T10:29:50Z</time>
      </trkpt>
      <trkpt lat="43.38139" lon="5.8507">
        <ele>598.56</ele>
        <time>2019-01-27T10:30:03Z</time>
      </trkpt>
      <trkpt lat="43.38142" lon="5.85068">
        <ele>598.56</ele>
        <time>2019-01-27T10:30:06Z</time>
      </trkpt>
      <trkpt lat="43.3816" lon="5.85048">
        <ele>599.52</ele>
        <time>2019-01-27T10:30:19Z</time>
      </trkpt>
      <trkpt lat="43.38159" lon="5.85039">
        <ele>600</ele>
        <time>2019-01-27T10:30:24Z</time>
      </trkpt>
      <trkpt lat="43.38161" lon="5.85018">
        <ele>600.48</ele>
        <time>2019-01-27T10:30:33Z</time>
      </trkpt>
      <trkpt lat="43.38166" lon="5.85002">
        <ele>600.48</ele>
        <time>2019-01-27T10:30:41Z</time>
      </trkpt>
      <trkpt lat="43.3817" lon="5.84992">
        <ele>600.48</ele>
        <time>2019-01-27T10:30:46Z</time>
      </trkpt>
      <trkpt lat="43.38171" lon="5.84984">
        <ele>600.48</ele>
        <time>2019-01-27T10:30:50Z</time>
      </trkpt>
      <trkpt lat="43.38181" lon="5.84961">
        <ele>598.56</ele>
        <time>2019-01-27T10:31:01Z</time>
      </trkpt>
      <trkpt lat="43.38188" lon="5.84951">
        <ele>597.12</ele>
        <time>2019-01-27T10:31:05Z</time>
      </trkpt>
      <trkpt lat="43.38196" lon="5.84931">
        <ele>596.15</ele>
        <time>2019-01-27T10:31:15Z</time>
      </trkpt>
      <trkpt lat="43.38194" lon="5.8492">
        <ele>596.15</ele>
        <time>2019-01-27T10:31:27Z</time>
      </trkpt>
      <trkpt lat="43.38197" lon="5.84915">
        <ele>595.19</ele>
        <time>2019-01-27T10:31:32Z</time>
      </trkpt>
      <trkpt lat="43.38203" lon="5.84911">
        <ele>594.23</ele>
        <time>2019-01-27T10:31:44Z</time>
      </trkpt>
      <trkpt lat="43.38204" lon="5.84911">
        <ele>594.23</ele>
        <time>2019-01-27T10:31:52Z</time>
      </trkpt>
      <trkpt lat="43.38213" lon="5.84912">
        <ele>592.31</ele>
        <time>2019-01-27T10:32:07Z</time>
      </trkpt>
      <trkpt lat="43.38214" lon="5.84908">
        <ele>591.83</ele>
        <time>2019-01-27T10:32:13Z</time>
      </trkpt>
      <trkpt lat="43.38219" lon="5.84892">
        <ele>590.87</ele>
        <time>2019-01-27T10:32:27Z</time>
      </trkpt>
      <trkpt lat="43.38221" lon="5.84886">
        <ele>589.91</ele>
        <time>2019-01-27T10:32:35Z</time>
      </trkpt>
      <trkpt lat="43.38222" lon="5.84881">
        <ele>588.95</ele>
        <time>2019-01-27T10:32:38Z</time>
      </trkpt>
      <trkpt lat="43.38229" lon="5.84868">
        <ele>587.98</ele>
        <time>2019-01-27T10:32:51Z</time>
      </trkpt>
      <trkpt lat="43.38231" lon="5.84867">
        <ele>587.98</ele>
        <time>2019-01-27T10:32:53Z</time>
      </trkpt>
      <trkpt lat="43.38233" lon="5.84862">
        <ele>587.5</ele>
        <time>2019-01-27T10:33:00Z</time>
      </trkpt>
      <trkpt lat="43.38234" lon="5.84856">
        <ele>587.02</ele>
        <time>2019-01-27T10:33:04Z</time>
      </trkpt>
      <trkpt lat="43.38232" lon="5.8483">
        <ele>583.18</ele>
        <time>2019-01-27T10:33:17Z</time>
      </trkpt>
      <trkpt lat="43.38233" lon="5.84826">
        <ele>582.7</ele>
        <time>2019-01-27T10:33:19Z</time>
      </trkpt>
      <trkpt lat="43.38228" lon="5.84804">
        <ele>578.85</ele>
        <time>2019-01-27T10:33:30Z</time>
      </trkpt>
      <trkpt lat="43.38228" lon="5.84794">
        <ele>577.41</ele>
        <time>2019-01-27T10:33:34Z</time>
      </trkpt>
      <trkpt lat="43.38229" lon="5.84789">
        <ele>575.97</ele>
        <time>2019-01-27T10:33:36Z</time>
      </trkpt>
      <trkpt lat="43.38223" lon="5.84781">
        <ele>575.97</ele>
        <time>2019-01-27T10:33:40Z</time>
      </trkpt>
      <trkpt lat="43.38217" lon="5.84743">
        <ele>574.04</ele>
        <time>2019-01-27T10:33:52Z</time>
      </trkpt>
      <trkpt lat="43.38216" lon="5.84736">
        <ele>571.64</ele>
        <time>2019-01-27T10:34:06Z</time>
      </trkpt>
      <trkpt lat="43.38219" lon="5.84726">
        <ele>569.24</ele>
        <time>2019-01-27T10:34:20Z</time>
      </trkpt>
      <trkpt lat="43.38221" lon="5.84725">
        <ele>569.24</ele>
        <time>2019-01-27T10:34:58Z</time>
      </trkpt>
      <trkpt lat="43.38221" lon="5.84726">
        <ele>570.2</ele>
        <time>2019-01-27T10:35:36Z</time>
      </trkpt>
      <trkpt lat="43.38223" lon="5.8472">
        <ele>568.76</ele>
        <time>2019-01-27T10:35:46Z</time>
      </trkpt>
      <trkpt lat="43.38216" lon="5.8469">
        <ele>566.35</ele>
        <time>2019-01-27T10:35:58Z</time>
      </trkpt>
      <trkpt lat="43.3821" lon="5.84678">
        <ele>566.35</ele>
        <time>2019-01-27T10:36:04Z</time>
      </trkpt>
      <trkpt lat="43.38209" lon="5.84668">
        <ele>565.87</ele>
        <time>2019-01-27T10:36:12Z</time>
      </trkpt>
      <trkpt lat="43.3821" lon="5.84666">
        <ele>564.91</ele>
        <time>2019-01-27T10:36:14Z</time>
      </trkpt>
      <trkpt lat="43.3821" lon="5.84663">
        <ele>564.43</ele>
        <time>2019-01-27T10:36:16Z</time>
      </trkpt>
      <trkpt lat="43.38208" lon="5.84639">
        <ele>562.99</ele>
        <time>2019-01-27T10:36:29Z</time>
      </trkpt>
      <trkpt lat="43.38209" lon="5.84629">
        <ele>559.62</ele>
        <time>2019-01-27T10:36:32Z</time>
      </trkpt>
      <trkpt lat="43.38209" lon="5.84626">
        <ele>559.62</ele>
        <time>2019-01-27T10:36:33Z</time>
      </trkpt>
      <trkpt lat="43.3821" lon="5.84614">
        <ele>557.22</ele>
        <time>2019-01-27T10:36:38Z</time>
      </trkpt>
      <trkpt lat="43.38208" lon="5.84592">
        <ele>554.82</ele>
        <time>2019-01-27T10:36:48Z</time>
      </trkpt>
      <trkpt lat="43.38211" lon="5.84569">
        <ele>551.93</ele>
        <time>2019-01-27T10:37:03Z</time>
      </trkpt>
      <trkpt lat="43.38212" lon="5.84569">
        <ele>551.93</ele>
        <time>2019-01-27T10:37:05Z</time>
      </trkpt>
      <trkpt lat="43.38216" lon="5.84567">
        <ele>550.01</ele>
        <time>2019-01-27T10:37:14Z</time>
      </trkpt>
      <trkpt lat="43.38214" lon="5.84539">
        <ele>546.65</ele>
        <time>2019-01-27T10:37:24Z</time>
      </trkpt>
      <trkpt lat="43.38206" lon="5.84515">
        <ele>545.69</ele>
        <time>2019-01-27T10:37:34Z</time>
      </trkpt>
      <trkpt lat="43.38194" lon="5.84475">
        <ele>543.28</ele>
        <time>2019-01-27T10:37:49Z</time>
      </trkpt>
      <trkpt lat="43.38188" lon="5.84462">
        <ele>542.8</ele>
        <time>2019-01-27T10:38:00Z</time>
      </trkpt>
      <trkpt lat="43.38183" lon="5.84452">
        <ele>542.32</ele>
        <time>2019-01-27T10:38:09Z</time>
      </trkpt>
      <trkpt lat="43.38173" lon="5.84436">
        <ele>541.84</ele>
        <time>2019-01-27T10:38:21Z</time>
      </trkpt>
      <trkpt lat="43.38162" lon="5.84427">
        <ele>541.36</ele>
        <time>2019-01-27T10:38:37Z</time>
      </trkpt>
      <trkpt lat="43.38162" lon="5.84426">
        <ele>540.88</ele>
        <time>2019-01-27T10:38:52Z</time>
      </trkpt>
      <trkpt lat="43.38163" lon="5.84427">
        <ele>540.88</ele>
        <time>2019-01-27T10:39:10Z</time>
      </trkpt>
      <trkpt lat="43.38162" lon="5.84428">
        <ele>540.88</ele>
        <time>2019-01-27T10:39:30Z</time>
      </trkpt>
      <trkpt lat="43.38164" lon="5.84425">
        <ele>540.88</ele>
        <time>2019-01-27T10:39:59Z</time>
      </trkpt>
      <trkpt lat="43.3816" lon="5.8442">
        <ele>540.88</ele>
        <time>2019-01-27T10:40:18Z</time>
      </trkpt>
      <trkpt lat="43.38153" lon="5.84415">
        <ele>540.88</ele>
        <time>2019-01-27T10:40:35Z</time>
      </trkpt>
      <trkpt lat="43.38148" lon="5.84407">
        <ele>539.92</ele>
        <time>2019-01-27T10:40:40Z</time>
      </trkpt>
      <trkpt lat="43.38145" lon="5.84405">
        <ele>539.44</ele>
        <time>2019-01-27T10:40:42Z</time>
      </trkpt>
      <trkpt lat="43.38139" lon="5.84405">
        <ele>540.88</ele>
        <time>2019-01-27T10:40:48Z</time>
      </trkpt>
      <trkpt lat="43.38132" lon="5.84401">
        <ele>542.32</ele>
        <time>2019-01-27T10:40:56Z</time>
      </trkpt>
      <trkpt lat="43.38119" lon="5.84394">
        <ele>539.44</ele>
        <time>2019-01-27T10:41:08Z</time>
      </trkpt>
      <trkpt lat="43.38117" lon="5.84394">
        <ele>539.44</ele>
        <time>2019-01-27T10:41:10Z</time>
      </trkpt>
      <trkpt lat="43.38113" lon="5.84393">
        <ele>538.48</ele>
        <time>2019-01-27T10:41:22Z</time>
      </trkpt>
      <trkpt lat="43.38113" lon="5.84394">
        <ele>539.92</ele>
        <time>2019-01-27T10:41:29Z</time>
      </trkpt>
      <trkpt lat="43.3811" lon="5.8439">
        <ele>540.88</ele>
        <time>2019-01-27T10:41:56Z</time>
      </trkpt>
      <trkpt lat="43.38105" lon="5.84382">
        <ele>539.92</ele>
        <time>2019-01-27T10:42:01Z</time>
      </trkpt>
      <trkpt lat="43.38104" lon="5.84381">
        <ele>539.44</ele>
        <time>2019-01-27T10:42:02Z</time>
      </trkpt>
      <trkpt lat="43.38093" lon="5.84368">
        <ele>538.48</ele>
        <time>2019-01-27T10:42:16Z</time>
      </trkpt>
      <trkpt lat="43.3809" lon="5.84365">
        <ele>537.51</ele>
        <time>2019-01-27T10:42:21Z</time>
      </trkpt>
      <trkpt lat="43.38088" lon="5.84362">
        <ele>536.55</ele>
        <time>2019-01-27T10:42:23Z</time>
      </trkpt>
      <trkpt lat="43.38087" lon="5.8436">
        <ele>536.55</ele>
        <time>2019-01-27T10:42:25Z</time>
      </trkpt>
      <trkpt lat="43.38086" lon="5.84354">
        <ele>536.07</ele>
        <time>2019-01-27T10:42:32Z</time>
      </trkpt>
      <trkpt lat="43.38078" lon="5.84341">
        <ele>535.11</ele>
        <time>2019-01-27T10:42:40Z</time>
      </trkpt>
      <trkpt lat="43.38067" lon="5.84331">
        <ele>533.67</ele>
        <time>2019-01-27T10:42:47Z</time>
      </trkpt>
      <trkpt lat="43.38057" lon="5.84328">
        <ele>533.19</ele>
        <time>2019-01-27T10:42:53Z</time>
      </trkpt>
      <trkpt lat="43.38047" lon="5.84318">
        <ele>532.23</ele>
        <time>2019-01-27T10:43:07Z</time>
      </trkpt>
      <trkpt lat="43.38047" lon="5.84317">
        <ele>532.23</ele>
        <time>2019-01-27T10:43:08Z</time>
      </trkpt>
      <trkpt lat="43.38045" lon="5.84315">
        <ele>531.27</ele>
        <time>2019-01-27T10:43:14Z</time>
      </trkpt>
      <trkpt lat="43.38035" lon="5.8431">
        <ele>531.27</ele>
        <time>2019-01-27T10:43:21Z</time>
      </trkpt>
      <trkpt lat="43.38014" lon="5.8431">
        <ele>528.86</ele>
        <time>2019-01-27T10:43:32Z</time>
      </trkpt>
      <trkpt lat="43.38006" lon="5.84312">
        <ele>530.3</ele>
        <time>2019-01-27T10:43:38Z</time>
      </trkpt>
      <trkpt lat="43.38003" lon="5.84311">
        <ele>530.79</ele>
        <time>2019-01-27T10:43:45Z</time>
      </trkpt>
      <trkpt lat="43.38001" lon="5.84309">
        <ele>530.79</ele>
        <time>2019-01-27T10:43:47Z</time>
      </trkpt>
      <trkpt lat="43.3798" lon="5.84293">
        <ele>529.82</ele>
        <time>2019-01-27T10:43:59Z</time>
      </trkpt>
      <trkpt lat="43.37979" lon="5.84292">
        <ele>529.82</ele>
        <time>2019-01-27T10:44:00Z</time>
      </trkpt>
      <trkpt lat="43.37961" lon="5.84278">
        <ele>528.86</ele>
        <time>2019-01-27T10:44:12Z</time>
      </trkpt>
      <trkpt lat="43.37951" lon="5.84273">
        <ele>528.86</ele>
        <time>2019-01-27T10:44:17Z</time>
      </trkpt>
      <trkpt lat="43.37926" lon="5.84263">
        <ele>529.34</ele>
        <time>2019-01-27T10:44:29Z</time>
      </trkpt>
      <trkpt lat="43.3792" lon="5.84262">
        <ele>529.34</ele>
        <time>2019-01-27T10:44:32Z</time>
      </trkpt>
      <trkpt lat="43.3791" lon="5.84261">
        <ele>529.34</ele>
        <time>2019-01-27T10:44:38Z</time>
      </trkpt>
      <trkpt lat="43.37902" lon="5.8426">
        <ele>528.38</ele>
        <time>2019-01-27T10:44:43Z</time>
      </trkpt>
      <trkpt lat="43.37889" lon="5.84254">
        <ele>525.98</ele>
        <time>2019-01-27T10:44:55Z</time>
      </trkpt>
      <trkpt lat="43.3789" lon="5.8425">
        <ele>525.02</ele>
        <time>2019-01-27T10:45:02Z</time>
      </trkpt>
      <trkpt lat="43.37903" lon="5.84247">
        <ele>522.61</ele>
        <time>2019-01-27T10:45:09Z</time>
      </trkpt>
      <trkpt lat="43.37917" lon="5.84234">
        <ele>521.17</ele>
        <time>2019-01-27T10:45:22Z</time>
      </trkpt>
      <trkpt lat="43.37925" lon="5.84228">
        <ele>519.25</ele>
        <time>2019-01-27T10:45:35Z</time>
      </trkpt>
      <trkpt lat="43.37934" lon="5.84223">
        <ele>517.33</ele>
        <time>2019-01-27T10:45:46Z</time>
      </trkpt>
      <trkpt lat="43.37943" lon="5.84217">
        <ele>515.88</ele>
        <time>2019-01-27T10:45:56Z</time>
      </trkpt>
      <trkpt lat="43.37944" lon="5.84217">
        <ele>515.88</ele>
        <time>2019-01-27T10:45:57Z</time>
      </trkpt>
      <trkpt lat="43.37945" lon="5.84217">
        <ele>514.92</ele>
        <time>2019-01-27T10:45:58Z</time>
      </trkpt>
      <trkpt lat="43.37955" lon="5.84217">
        <ele>513</ele>
        <time>2019-01-27T10:46:10Z</time>
      </trkpt>
      <trkpt lat="43.37964" lon="5.84222">
        <ele>511.08</ele>
        <time>2019-01-27T10:46:23Z</time>
      </trkpt>
      <trkpt lat="43.37967" lon="5.84224">
        <ele>510.12</ele>
        <time>2019-01-27T10:46:27Z</time>
      </trkpt>
      <trkpt lat="43.37968" lon="5.84225">
        <ele>509.64</ele>
        <time>2019-01-27T10:46:28Z</time>
      </trkpt>
      <trkpt lat="43.37972" lon="5.84227">
        <ele>508.67</ele>
        <time>2019-01-27T10:46:41Z</time>
      </trkpt>
      <trkpt lat="43.37968" lon="5.84224">
        <ele>508.67</ele>
        <time>2019-01-27T10:47:12Z</time>
      </trkpt>
      <trkpt lat="43.3797" lon="5.84225">
        <ele>508.67</ele>
        <time>2019-01-27T10:47:29Z</time>
      </trkpt>
      <trkpt lat="43.37973" lon="5.84226">
        <ele>508.67</ele>
        <time>2019-01-27T10:47:38Z</time>
      </trkpt>
      <trkpt lat="43.37976" lon="5.84227">
        <ele>508.19</ele>
        <time>2019-01-27T10:47:57Z</time>
      </trkpt>
      <trkpt lat="43.37974" lon="5.84227">
        <ele>508.19</ele>
        <time>2019-01-27T10:48:23Z</time>
      </trkpt>
      <trkpt lat="43.37975" lon="5.84228">
        <ele>507.71</ele>
        <time>2019-01-27T10:48:44Z</time>
      </trkpt>
      <trkpt lat="43.3798" lon="5.84226">
        <ele>506.75</ele>
        <time>2019-01-27T10:48:56Z</time>
      </trkpt>
      <trkpt lat="43.37988" lon="5.84228">
        <ele>505.79</ele>
        <time>2019-01-27T10:49:04Z</time>
      </trkpt>
      <trkpt lat="43.37996" lon="5.84231">
        <ele>504.83</ele>
        <time>2019-01-27T10:49:15Z</time>
      </trkpt>
      <trkpt lat="43.37997" lon="5.84231">
        <ele>504.83</ele>
        <time>2019-01-27T10:49:16Z</time>
      </trkpt>
      <trkpt lat="43.37999" lon="5.84231">
        <ele>504.83</ele>
        <time>2019-01-27T10:49:17Z</time>
      </trkpt>
      <trkpt lat="43.38" lon="5.84231">
        <ele>503.87</ele>
        <time>2019-01-27T10:49:18Z</time>
      </trkpt>
      <trkpt lat="43.38008" lon="5.84234">
        <ele>502.43</ele>
        <time>2019-01-27T10:49:28Z</time>
      </trkpt>
      <trkpt lat="43.38012" lon="5.84232">
        <ele>501.46</ele>
        <time>2019-01-27T10:49:40Z</time>
      </trkpt>
      <trkpt lat="43.38016" lon="5.84233">
        <ele>500.98</ele>
        <time>2019-01-27T10:49:44Z</time>
      </trkpt>
      <trkpt lat="43.38019" lon="5.84232">
        <ele>500.5</ele>
        <time>2019-01-27T10:49:47Z</time>
      </trkpt>
      <trkpt lat="43.38025" lon="5.8423">
        <ele>498.58</ele>
        <time>2019-01-27T10:49:56Z</time>
      </trkpt>
      <trkpt lat="43.38032" lon="5.84227">
        <ele>495.7</ele>
        <time>2019-01-27T10:50:09Z</time>
      </trkpt>
      <trkpt lat="43.38038" lon="5.84226">
        <ele>494.26</ele>
        <time>2019-01-27T10:50:18Z</time>
      </trkpt>
      <trkpt lat="43.38047" lon="5.84227">
        <ele>492.33</ele>
        <time>2019-01-27T10:50:31Z</time>
      </trkpt>
      <trkpt lat="43.38054" lon="5.84225">
        <ele>490.41</ele>
        <time>2019-01-27T10:50:45Z</time>
      </trkpt>
      <trkpt lat="43.38056" lon="5.84221">
        <ele>490.41</ele>
        <time>2019-01-27T10:51:03Z</time>
      </trkpt>
      <trkpt lat="43.38054" lon="5.84221">
        <ele>490.41</ele>
        <time>2019-01-27T10:51:35Z</time>
      </trkpt>
      <trkpt lat="43.38061" lon="5.84224">
        <ele>489.45</ele>
        <time>2019-01-27T10:51:48Z</time>
      </trkpt>
      <trkpt lat="43.38062" lon="5.84224">
        <ele>489.45</ele>
        <time>2019-01-27T10:51:49Z</time>
      </trkpt>
      <trkpt lat="43.38075" lon="5.84225">
        <ele>487.05</ele>
        <time>2019-01-27T10:52:02Z</time>
      </trkpt>
      <trkpt lat="43.38081" lon="5.84219">
        <ele>484.64</ele>
        <time>2019-01-27T10:52:14Z</time>
      </trkpt>
      <trkpt lat="43.38086" lon="5.84214">
        <ele>482.24</ele>
        <time>2019-01-27T10:52:22Z</time>
      </trkpt>
      <trkpt lat="43.38089" lon="5.84213">
        <ele>482.24</ele>
        <time>2019-01-27T10:52:27Z</time>
      </trkpt>
      <trkpt lat="43.38092" lon="5.84213">
        <ele>481.76</ele>
        <time>2019-01-27T10:52:30Z</time>
      </trkpt>
      <trkpt lat="43.38093" lon="5.84213">
        <ele>481.28</ele>
        <time>2019-01-27T10:52:31Z</time>
      </trkpt>
      <trkpt lat="43.38101" lon="5.84218">
        <ele>479.35</ele>
        <time>2019-01-27T10:52:44Z</time>
      </trkpt>
      <trkpt lat="43.38105" lon="5.84222">
        <ele>478.39</ele>
        <time>2019-01-27T10:52:50Z</time>
      </trkpt>
      <trkpt lat="43.38109" lon="5.84226">
        <ele>477.43</ele>
        <time>2019-01-27T10:52:56Z</time>
      </trkpt>
      <trkpt lat="43.38114" lon="5.8423">
        <ele>476.47</ele>
        <time>2019-01-27T10:53:03Z</time>
      </trkpt>
      <trkpt lat="43.38123" lon="5.84237">
        <ele>475.03</ele>
        <time>2019-01-27T10:53:15Z</time>
      </trkpt>
      <trkpt lat="43.38126" lon="5.84241">
        <ele>474.55</ele>
        <time>2019-01-27T10:53:28Z</time>
      </trkpt>
      <trkpt lat="43.38124" lon="5.84241">
        <ele>474.07</ele>
        <time>2019-01-27T10:53:52Z</time>
      </trkpt>
      <trkpt lat="43.38127" lon="5.84238">
        <ele>474.07</ele>
        <time>2019-01-27T10:54:19Z</time>
      </trkpt>
      <trkpt lat="43.38125" lon="5.84238">
        <ele>474.07</ele>
        <time>2019-01-27T10:54:50Z</time>
      </trkpt>
      <trkpt lat="43.38125" lon="5.84239">
        <ele>474.07</ele>
        <time>2019-01-27T10:55:19Z</time>
      </trkpt>
      <trkpt lat="43.38127" lon="5.8424">
        <ele>474.07</ele>
        <time>2019-01-27T10:55:30Z</time>
      </trkpt>
      <trkpt lat="43.38129" lon="5.84243">
        <ele>474.07</ele>
        <time>2019-01-27T10:55:33Z</time>
      </trkpt>
      <trkpt lat="43.38131" lon="5.84244">
        <ele>474.07</ele>
        <time>2019-01-27T10:55:34Z</time>
      </trkpt>
      <trkpt lat="43.38132" lon="5.84246">
        <ele>474.07</ele>
        <time>2019-01-27T10:55:35Z</time>
      </trkpt>
      <trkpt lat="43.3816" lon="5.84268">
        <ele>471.66</ele>
        <time>2019-01-27T10:55:47Z</time>
      </trkpt>
      <trkpt lat="43.38188" lon="5.84274">
        <ele>470.22</ele>
        <time>2019-01-27T10:55:58Z</time>
      </trkpt>
      <trkpt lat="43.38201" lon="5.84276">
        <ele>466.86</ele>
        <time>2019-01-27T10:56:10Z</time>
      </trkpt>
      <trkpt lat="43.38233" lon="5.84296">
        <ele>465.9</ele>
        <time>2019-01-27T10:56:20Z</time>
      </trkpt>
      <trkpt lat="43.38253" lon="5.8431">
        <ele>465.42</ele>
        <time>2019-01-27T10:56:30Z</time>
      </trkpt>
      <trkpt lat="43.38261" lon="5.84316">
        <ele>465.9</ele>
        <time>2019-01-27T10:56:41Z</time>
      </trkpt>
      <trkpt lat="43.38265" lon="5.84318">
        <ele>465.9</ele>
        <time>2019-01-27T10:56:45Z</time>
      </trkpt>
      <trkpt lat="43.38267" lon="5.84319">
        <ele>465.9</ele>
        <time>2019-01-27T10:56:47Z</time>
      </trkpt>
      <trkpt lat="43.38268" lon="5.84319">
        <ele>464.93</ele>
        <time>2019-01-27T10:56:48Z</time>
      </trkpt>
      <trkpt lat="43.38272" lon="5.8432">
        <ele>463.97</ele>
        <time>2019-01-27T10:56:50Z</time>
      </trkpt>
      <trkpt lat="43.38286" lon="5.84324">
        <ele>461.57</ele>
        <time>2019-01-27T10:57:01Z</time>
      </trkpt>
      <trkpt lat="43.38299" lon="5.84329">
        <ele>459.65</ele>
        <time>2019-01-27T10:57:06Z</time>
      </trkpt>
      <trkpt lat="43.38304" lon="5.84332">
        <ele>459.65</ele>
        <time>2019-01-27T10:57:08Z</time>
      </trkpt>
      <trkpt lat="43.38318" lon="5.84361">
        <ele>455.8</ele>
        <time>2019-01-27T10:57:20Z</time>
      </trkpt>
      <trkpt lat="43.38327" lon="5.84369">
        <ele>455.32</ele>
        <time>2019-01-27T10:57:26Z</time>
      </trkpt>
      <trkpt lat="43.38342" lon="5.84381">
        <ele>452.44</ele>
        <time>2019-01-27T10:57:31Z</time>
      </trkpt>
      <trkpt lat="43.38365" lon="5.8443">
        <ele>451.48</ele>
        <time>2019-01-27T10:57:43Z</time>
      </trkpt>
      <trkpt lat="43.38375" lon="5.84452">
        <ele>448.11</ele>
        <time>2019-01-27T10:57:53Z</time>
      </trkpt>
      <trkpt lat="43.3838" lon="5.84459">
        <ele>446.67</ele>
        <time>2019-01-27T10:57:57Z</time>
      </trkpt>
      <trkpt lat="43.38382" lon="5.84462">
        <ele>446.67</ele>
        <time>2019-01-27T10:57:59Z</time>
      </trkpt>
      <trkpt lat="43.38383" lon="5.84464">
        <ele>446.67</ele>
        <time>2019-01-27T10:58:00Z</time>
      </trkpt>
      <trkpt lat="43.38383" lon="5.84466">
        <ele>445.23</ele>
        <time>2019-01-27T10:58:01Z</time>
      </trkpt>
      <trkpt lat="43.38384" lon="5.84468">
        <ele>444.27</ele>
        <time>2019-01-27T10:58:02Z</time>
      </trkpt>
      <trkpt lat="43.38386" lon="5.8447">
        <ele>444.27</ele>
        <time>2019-01-27T10:58:03Z</time>
      </trkpt>
      <trkpt lat="43.38387" lon="5.84472">
        <ele>444.27</ele>
        <time>2019-01-27T10:58:04Z</time>
      </trkpt>
      <trkpt lat="43.3839" lon="5.84475">
        <ele>444.27</ele>
        <time>2019-01-27T10:58:05Z</time>
      </trkpt>
      <trkpt lat="43.38432" lon="5.84518">
        <ele>443.31</ele>
        <time>2019-01-27T10:58:18Z</time>
      </trkpt>
      <trkpt lat="43.38488" lon="5.84545">
        <ele>445.23</ele>
        <time>2019-01-27T10:58:31Z</time>
      </trkpt>
      <trkpt lat="43.38528" lon="5.84558">
        <ele>446.19</ele>
        <time>2019-01-27T10:58:45Z</time>
      </trkpt>
      <trkpt lat="43.38553" lon="5.84575">
        <ele>446.19</ele>
        <time>2019-01-27T10:58:59Z</time>
      </trkpt>
      <trkpt lat="43.38566" lon="5.846">
        <ele>448.11</ele>
        <time>2019-01-27T10:59:15Z</time>
      </trkpt>
      <trkpt lat="43.38575" lon="5.84611">
        <ele>448.59</ele>
        <time>2019-01-27T10:59:28Z</time>
      </trkpt>
      <trkpt lat="43.38587" lon="5.84623">
        <ele>449.55</ele>
        <time>2019-01-27T10:59:41Z</time>
      </trkpt>
      <trkpt lat="43.38613" lon="5.84653">
        <ele>450.03</ele>
        <time>2019-01-27T10:59:58Z</time>
      </trkpt>
      <trkpt lat="43.38637" lon="5.84684">
        <ele>451</ele>
        <time>2019-01-27T11:00:13Z</time>
      </trkpt>
      <trkpt lat="43.38663" lon="5.84724">
        <ele>449.55</ele>
        <time>2019-01-27T11:00:29Z</time>
      </trkpt>
      <trkpt lat="43.38702" lon="5.84771">
        <ele>446.19</ele>
        <time>2019-01-27T11:00:44Z</time>
      </trkpt>
      <trkpt lat="43.3872" lon="5.84793">
        <ele>442.82</ele>
        <time>2019-01-27T11:00:54Z</time>
      </trkpt>
      <trkpt lat="43.38731" lon="5.84806">
        <ele>439.46</ele>
        <time>2019-01-27T11:01:01Z</time>
      </trkpt>
      <trkpt lat="43.38741" lon="5.84822">
        <ele>436.58</ele>
        <time>2019-01-27T11:01:08Z</time>
      </trkpt>
      <trkpt lat="43.38745" lon="5.84829">
        <ele>436.1</ele>
        <time>2019-01-27T11:01:12Z</time>
      </trkpt>
      <trkpt lat="43.38749" lon="5.8483">
        <ele>434.65</ele>
        <time>2019-01-27T11:01:15Z</time>
      </trkpt>
      <trkpt lat="43.38755" lon="5.84837">
        <ele>434.65</ele>
        <time>2019-01-27T11:01:19Z</time>
      </trkpt>
      <trkpt lat="43.38757" lon="5.84837">
        <ele>434.65</ele>
        <time>2019-01-27T11:01:20Z</time>
      </trkpt>
      <trkpt lat="43.38759" lon="5.84837">
        <ele>433.69</ele>
        <time>2019-01-27T11:01:21Z</time>
      </trkpt>
      <trkpt lat="43.3876" lon="5.84837">
        <ele>433.21</ele>
        <time>2019-01-27T11:01:22Z</time>
      </trkpt>
      <trkpt lat="43.38762" lon="5.84838">
        <ele>432.73</ele>
        <time>2019-01-27T11:01:23Z</time>
      </trkpt>
      <trkpt lat="43.38764" lon="5.84839">
        <ele>432.25</ele>
        <time>2019-01-27T11:01:24Z</time>
      </trkpt>
      <trkpt lat="43.38765" lon="5.8484">
        <ele>432.25</ele>
        <time>2019-01-27T11:01:25Z</time>
      </trkpt>
      <trkpt lat="43.38778" lon="5.84858">
        <ele>428.4</ele>
        <time>2019-01-27T11:01:33Z</time>
      </trkpt>
      <trkpt lat="43.38786" lon="5.84879">
        <ele>425.52</ele>
        <time>2019-01-27T11:01:38Z</time>
      </trkpt>
      <trkpt lat="43.38791" lon="5.84902">
        <ele>422.64</ele>
        <time>2019-01-27T11:01:42Z</time>
      </trkpt>
      <trkpt lat="43.38796" lon="5.84925">
        <ele>419.27</ele>
        <time>2019-01-27T11:01:46Z</time>
      </trkpt>
      <trkpt lat="43.38801" lon="5.84947">
        <ele>415.91</ele>
        <time>2019-01-27T11:01:49Z</time>
      </trkpt>
      <trkpt lat="43.38803" lon="5.84955">
        <ele>415.91</ele>
        <time>2019-01-27T11:01:50Z</time>
      </trkpt>
      <trkpt lat="43.38808" lon="5.84988">
        <ele>412.54</ele>
        <time>2019-01-27T11:01:54Z</time>
      </trkpt>
      <trkpt lat="43.38815" lon="5.8503">
        <ele>410.14</ele>
        <time>2019-01-27T11:01:59Z</time>
      </trkpt>
      <trkpt lat="43.38818" lon="5.85037">
        <ele>409.18</ele>
        <time>2019-01-27T11:02:00Z</time>
      </trkpt>
      <trkpt lat="43.38821" lon="5.85045">
        <ele>408.22</ele>
        <time>2019-01-27T11:02:01Z</time>
      </trkpt>
      <trkpt lat="43.38824" lon="5.85054">
        <ele>408.22</ele>
        <time>2019-01-27T11:02:02Z</time>
      </trkpt>
      <trkpt lat="43.38828" lon="5.8508">
        <ele>405.81</ele>
        <time>2019-01-27T11:02:05Z</time>
      </trkpt>
      <trkpt lat="43.38828" lon="5.85094">
        <ele>404.37</ele>
        <time>2019-01-27T11:02:07Z</time>
      </trkpt>
      <trkpt lat="43.3883" lon="5.851">
        <ele>402.93</ele>
        <time>2019-01-27T11:02:09Z</time>
      </trkpt>
      <trkpt lat="43.38832" lon="5.85101">
        <ele>402.45</ele>
        <time>2019-01-27T11:02:10Z</time>
      </trkpt>
      <trkpt lat="43.38833" lon="5.85103">
        <ele>401.97</ele>
        <time>2019-01-27T11:02:11Z</time>
      </trkpt>
      <trkpt lat="43.3884" lon="5.85111">
        <ele>401.49</ele>
        <time>2019-01-27T11:02:13Z</time>
      </trkpt>
      <trkpt lat="43.3885" lon="5.85119">
        <ele>400.53</ele>
        <time>2019-01-27T11:02:15Z</time>
      </trkpt>
      <trkpt lat="43.38856" lon="5.8512">
        <ele>399.57</ele>
        <time>2019-01-27T11:02:16Z</time>
      </trkpt>
      <trkpt lat="43.38865" lon="5.85118">
        <ele>398.6</ele>
        <time>2019-01-27T11:02:18Z</time>
      </trkpt>
      <trkpt lat="43.38871" lon="5.85118">
        <ele>398.12</ele>
        <time>2019-01-27T11:02:19Z</time>
      </trkpt>
      <trkpt lat="43.38916" lon="5.85115">
        <ele>394.76</ele>
        <time>2019-01-27T11:02:26Z</time>
      </trkpt>
      <trkpt lat="43.38938" lon="5.8512">
        <ele>390.91</ele>
        <time>2019-01-27T11:02:31Z</time>
      </trkpt>
      <trkpt lat="43.38961" lon="5.85127">
        <ele>388.99</ele>
        <time>2019-01-27T11:02:41Z</time>
      </trkpt>
      <trkpt lat="43.38993" lon="5.85132">
        <ele>386.59</ele>
        <time>2019-01-27T11:02:46Z</time>
      </trkpt>
      <trkpt lat="43.39025" lon="5.85133">
        <ele>383.22</ele>
        <time>2019-01-27T11:02:51Z</time>
      </trkpt>
      <trkpt lat="43.39042" lon="5.85133">
        <ele>381.78</ele>
        <time>2019-01-27T11:02:54Z</time>
      </trkpt>
      <trkpt lat="43.39062" lon="5.85133">
        <ele>380.34</ele>
        <time>2019-01-27T11:02:57Z</time>
      </trkpt>
      <trkpt lat="43.39115" lon="5.85128">
        <ele>377.94</ele>
        <time>2019-01-27T11:03:04Z</time>
      </trkpt>
      <trkpt lat="43.39149" lon="5.85124">
        <ele>375.05</ele>
        <time>2019-01-27T11:03:10Z</time>
      </trkpt>
      <trkpt lat="43.3916" lon="5.85123">
        <ele>373.61</ele>
        <time>2019-01-27T11:03:12Z</time>
      </trkpt>
      <trkpt lat="43.39165" lon="5.85124">
        <ele>373.61</ele>
        <time>2019-01-27T11:03:13Z</time>
      </trkpt>
      <trkpt lat="43.39204" lon="5.85121">
        <ele>370.73</ele>
        <time>2019-01-27T11:03:20Z</time>
      </trkpt>
      <trkpt lat="43.39208" lon="5.8512">
        <ele>370.73</ele>
        <time>2019-01-27T11:03:21Z</time>
      </trkpt>
      <trkpt lat="43.39261" lon="5.85118">
        <ele>367.36</ele>
        <time>2019-01-27T11:03:36Z</time>
      </trkpt>
      <trkpt lat="43.39272" lon="5.85108">
        <ele>366.88</ele>
        <time>2019-01-27T11:03:41Z</time>
      </trkpt>
      <trkpt lat="43.39303" lon="5.85099">
        <ele>364.48</ele>
        <time>2019-01-27T11:03:48Z</time>
      </trkpt>
      <trkpt lat="43.39308" lon="5.85099">
        <ele>364.48</ele>
        <time>2019-01-27T11:03:49Z</time>
      </trkpt>
      <trkpt lat="43.39321" lon="5.85102">
        <ele>364.48</ele>
        <time>2019-01-27T11:03:51Z</time>
      </trkpt>
      <trkpt lat="43.39327" lon="5.85102">
        <ele>364.48</ele>
        <time>2019-01-27T11:03:52Z</time>
      </trkpt>
      <trkpt lat="43.3934" lon="5.85102">
        <ele>364.48</ele>
        <time>2019-01-27T11:03:54Z</time>
      </trkpt>
      <trkpt lat="43.39378" lon="5.85107">
        <ele>364.48</ele>
        <time>2019-01-27T11:04:04Z</time>
      </trkpt>
      <trkpt lat="43.39386" lon="5.8511">
        <ele>364.48</ele>
        <time>2019-01-27T11:04:07Z</time>
      </trkpt>
      <trkpt lat="43.39387" lon="5.85113">
        <ele>364</ele>
        <time>2019-01-27T11:04:08Z</time>
      </trkpt>
      <trkpt lat="43.39388" lon="5.85117">
        <ele>364</ele>
        <time>2019-01-27T11:04:09Z</time>
      </trkpt>
      <trkpt lat="43.39388" lon="5.85121">
        <ele>364</ele>
        <time>2019-01-27T11:04:10Z</time>
      </trkpt>
      <trkpt lat="43.39389" lon="5.85126">
        <ele>364</ele>
        <time>2019-01-27T11:04:11Z</time>
      </trkpt>
      <trkpt lat="43.39388" lon="5.85131">
        <ele>364</ele>
        <time>2019-01-27T11:04:12Z</time>
      </trkpt>
      <trkpt lat="43.39386" lon="5.85232">
        <ele>364.96</ele>
        <time>2019-01-27T11:04:29Z</time>
      </trkpt>
      <trkpt lat="43.39386" lon="5.85245">
        <ele>364.96</ele>
        <time>2019-01-27T11:04:31Z</time>
      </trkpt>
      <trkpt lat="43.39383" lon="5.85314">
        <ele>365.92</ele>
        <time>2019-01-27T11:04:43Z</time>
      </trkpt>
      <trkpt lat="43.39379" lon="5.85386">
        <ele>366.4</ele>
        <time>2019-01-27T11:04:53Z</time>
      </trkpt>
      <trkpt lat="43.39384" lon="5.85492">
        <ele>365.92</ele>
        <time>2019-01-27T11:05:08Z</time>
      </trkpt>
      <trkpt lat="43.3939" lon="5.85624">
        <ele>365.92</ele>
        <time>2019-01-27T11:05:24Z</time>
      </trkpt>
      <trkpt lat="43.39392" lon="5.8566">
        <ele>364.48</ele>
        <time>2019-01-27T11:05:28Z</time>
      </trkpt>
      <trkpt lat="43.39393" lon="5.85854">
        <ele>364</ele>
        <time>2019-01-27T11:05:47Z</time>
      </trkpt>
      <trkpt lat="43.39404" lon="5.85995">
        <ele>360.63</ele>
        <time>2019-01-27T11:05:59Z</time>
      </trkpt>
      <trkpt lat="43.39439" lon="5.86175">
        <ele>357.75</ele>
        <time>2019-01-27T11:06:14Z</time>
      </trkpt>
      <trkpt lat="43.39499" lon="5.86316">
        <ele>356.31</ele>
        <time>2019-01-27T11:06:27Z</time>
      </trkpt>
      <trkpt lat="43.39518" lon="5.86417">
        <ele>353.42</ele>
        <time>2019-01-27T11:06:36Z</time>
      </trkpt>
      <trkpt lat="43.39517" lon="5.86427">
        <ele>353.42</ele>
        <time>2019-01-27T11:06:37Z</time>
      </trkpt>
      <trkpt lat="43.39515" lon="5.86439">
        <ele>353.9</ele>
        <time>2019-01-27T11:06:38Z</time>
      </trkpt>
      <trkpt lat="43.39469" lon="5.86611">
        <ele>351.02</ele>
        <time>2019-01-27T11:06:54Z</time>
      </trkpt>
      <trkpt lat="43.39459" lon="5.86747">
        <ele>350.06</ele>
        <time>2019-01-27T11:07:07Z</time>
      </trkpt>
      <trkpt lat="43.39492" lon="5.86907">
        <ele>349.1</ele>
        <time>2019-01-27T11:07:24Z</time>
      </trkpt>
      <trkpt lat="43.39524" lon="5.87079">
        <ele>347.65</ele>
        <time>2019-01-27T11:07:42Z</time>
      </trkpt>
      <trkpt lat="43.39577" lon="5.87262">
        <ele>346.69</ele>
        <time>2019-01-27T11:08:01Z</time>
      </trkpt>
      <trkpt lat="43.3963" lon="5.87463">
        <ele>345.73</ele>
        <time>2019-01-27T11:08:22Z</time>
      </trkpt>
      <trkpt lat="43.39673" lon="5.87625">
        <ele>345.25</ele>
        <time>2019-01-27T11:08:39Z</time>
      </trkpt>
      <trkpt lat="43.39721" lon="5.87802">
        <ele>345.25</ele>
        <time>2019-01-27T11:08:58Z</time>
      </trkpt>
      <trkpt lat="43.39751" lon="5.87917">
        <ele>346.21</ele>
        <time>2019-01-27T11:09:11Z</time>
      </trkpt>
      <trkpt lat="43.39779" lon="5.88027">
        <ele>349.1</ele>
        <time>2019-01-27T11:09:26Z</time>
      </trkpt>
      <trkpt lat="43.39814" lon="5.88158">
        <ele>351.02</ele>
        <time>2019-01-27T11:09:43Z</time>
      </trkpt>
      <trkpt lat="43.39841" lon="5.88301">
        <ele>351.5</ele>
        <time>2019-01-27T11:10:01Z</time>
      </trkpt>
      <trkpt lat="43.39852" lon="5.88385">
        <ele>348.13</ele>
        <time>2019-01-27T11:10:11Z</time>
      </trkpt>
      <trkpt lat="43.39854" lon="5.88393">
        <ele>348.13</ele>
        <time>2019-01-27T11:10:12Z</time>
      </trkpt>
      <trkpt lat="43.39857" lon="5.88401">
        <ele>348.13</ele>
        <time>2019-01-27T11:10:13Z</time>
      </trkpt>
      <trkpt lat="43.39862" lon="5.88408">
        <ele>348.13</ele>
        <time>2019-01-27T11:10:14Z</time>
      </trkpt>
      <trkpt lat="43.39868" lon="5.88412">
        <ele>348.13</ele>
        <time>2019-01-27T11:10:15Z</time>
      </trkpt>
      <trkpt lat="43.39874" lon="5.88414">
        <ele>348.13</ele>
        <time>2019-01-27T11:10:16Z</time>
      </trkpt>
      <trkpt lat="43.39879" lon="5.88414">
        <ele>348.13</ele>
        <time>2019-01-27T11:10:17Z</time>
      </trkpt>
      <trkpt lat="43.39884" lon="5.88413">
        <ele>348.13</ele>
        <time>2019-01-27T11:10:18Z</time>
      </trkpt>
      <trkpt lat="43.3989" lon="5.88412">
        <ele>348.13</ele>
        <time>2019-01-27T11:10:19Z</time>
      </trkpt>
      <trkpt lat="43.39895" lon="5.88411">
        <ele>349.58</ele>
        <time>2019-01-27T11:10:20Z</time>
      </trkpt>
      <trkpt lat="43.39899" lon="5.8841">
        <ele>349.58</ele>
        <time>2019-01-27T11:10:21Z</time>
      </trkpt>
      <trkpt lat="43.39908" lon="5.88407">
        <ele>349.58</ele>
        <time>2019-01-27T11:10:23Z</time>
      </trkpt>
      <trkpt lat="43.39913" lon="5.88405">
        <ele>349.58</ele>
        <time>2019-01-27T11:10:24Z</time>
      </trkpt>
      <trkpt lat="43.39917" lon="5.88403">
        <ele>349.58</ele>
        <time>2019-01-27T11:10:25Z</time>
      </trkpt>
      <trkpt lat="43.39921" lon="5.88399">
        <ele>349.58</ele>
        <time>2019-01-27T11:10:26Z</time>
      </trkpt>
      <trkpt lat="43.39924" lon="5.88395">
        <ele>349.58</ele>
        <time>2019-01-27T11:10:27Z</time>
      </trkpt>
      <trkpt lat="43.39928" lon="5.8839">
        <ele>349.58</ele>
        <time>2019-01-27T11:10:28Z</time>
      </trkpt>
      <trkpt lat="43.39959" lon="5.88332">
        <ele>347.65</ele>
        <time>2019-01-27T11:10:38Z</time>
      </trkpt>
      <trkpt lat="43.40022" lon="5.88247">
        <ele>346.69</ele>
        <time>2019-01-27T11:10:52Z</time>
      </trkpt>
      <trkpt lat="43.40102" lon="5.88165">
        <ele>345.25</ele>
        <time>2019-01-27T11:11:09Z</time>
      </trkpt>
      <trkpt lat="43.40174" lon="5.88095">
        <ele>344.29</ele>
        <time>2019-01-27T11:11:24Z</time>
      </trkpt>
      <trkpt lat="43.4023" lon="5.88021">
        <ele>343.33</ele>
        <time>2019-01-27T11:11:37Z</time>
      </trkpt>
      <trkpt lat="43.40286" lon="5.87944">
        <ele>341.89</ele>
        <time>2019-01-27T11:11:50Z</time>
      </trkpt>
      <trkpt lat="43.40298" lon="5.87918">
        <ele>341.89</ele>
        <time>2019-01-27T11:11:54Z</time>
      </trkpt>
      <trkpt lat="43.40303" lon="5.87906">
        <ele>341.41</ele>
        <time>2019-01-27T11:11:56Z</time>
      </trkpt>
      <trkpt lat="43.40323" lon="5.8783">
        <ele>342.85</ele>
        <time>2019-01-27T11:12:11Z</time>
      </trkpt>
      <trkpt lat="43.40335" lon="5.87776">
        <ele>345.25</ele>
        <time>2019-01-27T11:12:22Z</time>
      </trkpt>
      <trkpt lat="43.40334" lon="5.87703">
        <ele>344.29</ele>
        <time>2019-01-27T11:12:37Z</time>
      </trkpt>
      <trkpt lat="43.40326" lon="5.8764">
        <ele>343.81</ele>
        <time>2019-01-27T11:12:50Z</time>
      </trkpt>
      <trkpt lat="43.40316" lon="5.87559">
        <ele>345.73</ele>
        <time>2019-01-27T11:13:08Z</time>
      </trkpt>
      <trkpt lat="43.40306" lon="5.87481">
        <ele>345.25</ele>
        <time>2019-01-27T11:13:24Z</time>
      </trkpt>
      <trkpt lat="43.40301" lon="5.87447">
        <ele>344.29</ele>
        <time>2019-01-27T11:13:31Z</time>
      </trkpt>
      <trkpt lat="43.40293" lon="5.87357">
        <ele>345.73</ele>
        <time>2019-01-27T11:13:49Z</time>
      </trkpt>
      <trkpt lat="43.4029" lon="5.8728">
        <ele>345.25</ele>
        <time>2019-01-27T11:14:04Z</time>
      </trkpt>
      <trkpt lat="43.40289" lon="5.87248">
        <ele>346.21</ele>
        <time>2019-01-27T11:14:10Z</time>
      </trkpt>
      <trkpt lat="43.40286" lon="5.87148">
        <ele>344.29</ele>
        <time>2019-01-27T11:14:28Z</time>
      </trkpt>
      <trkpt lat="43.40283" lon="5.87042">
        <ele>345.25</ele>
        <time>2019-01-27T11:14:47Z</time>
      </trkpt>
      <trkpt lat="43.40282" lon="5.87008">
        <ele>343.81</ele>
        <time>2019-01-27T11:14:53Z</time>
      </trkpt>
      <trkpt lat="43.4028" lon="5.86935">
        <ele>345.73</ele>
        <time>2019-01-27T11:15:08Z</time>
      </trkpt>
      <trkpt lat="43.40297" lon="5.8684">
        <ele>345.25</ele>
        <time>2019-01-27T11:15:25Z</time>
      </trkpt>
      <trkpt lat="43.40322" lon="5.86755">
        <ele>345.73</ele>
        <time>2019-01-27T11:15:41Z</time>
      </trkpt>
      <trkpt lat="43.40354" lon="5.86686">
        <ele>344.77</ele>
        <time>2019-01-27T11:15:56Z</time>
      </trkpt>
      <trkpt lat="43.40396" lon="5.86621">
        <ele>343.33</ele>
        <time>2019-01-27T11:16:11Z</time>
      </trkpt>
      <trkpt lat="43.4043" lon="5.86577">
        <ele>343.33</ele>
        <time>2019-01-27T11:16:21Z</time>
      </trkpt>
      <trkpt lat="43.40441" lon="5.86558">
        <ele>343.33</ele>
        <time>2019-01-27T11:16:25Z</time>
      </trkpt>
      <trkpt lat="43.40442" lon="5.86539">
        <ele>343.33</ele>
        <time>2019-01-27T11:16:33Z</time>
      </trkpt>
      <trkpt lat="43.40443" lon="5.86537">
        <ele>342.85</ele>
        <time>2019-01-27T11:16:46Z</time>
      </trkpt>
      <trkpt lat="43.40446" lon="5.86537">
        <ele>342.85</ele>
        <time>2019-01-27T11:16:50Z</time>
      </trkpt>
      <trkpt lat="43.40462" lon="5.86521">
        <ele>344.29</ele>
        <time>2019-01-27T11:17:02Z</time>
      </trkpt>
      <trkpt lat="43.40464" lon="5.86519">
        <ele>344.29</ele>
        <time>2019-01-27T11:17:03Z</time>
      </trkpt>
      <trkpt lat="43.40482" lon="5.86504">
        <ele>344.77</ele>
        <time>2019-01-27T11:17:16Z</time>
      </trkpt>
      <trkpt lat="43.40482" lon="5.86502">
        <ele>345.25</ele>
        <time>2019-01-27T11:17:26Z</time>
      </trkpt>
      <trkpt lat="43.40481" lon="5.86503">
        <ele>345.25</ele>
        <time>2019-01-27T11:17:41Z</time>
      </trkpt>
      <trkpt lat="43.40494" lon="5.86486">
        <ele>344.29</ele>
        <time>2019-01-27T11:17:56Z</time>
      </trkpt>
      <trkpt lat="43.40511" lon="5.86464">
        <ele>343.81</ele>
        <time>2019-01-27T11:18:14Z</time>
      </trkpt>
      <trkpt lat="43.40525" lon="5.86446">
        <ele>343.81</ele>
        <time>2019-01-27T11:18:30Z</time>
      </trkpt>
      <trkpt lat="43.40539" lon="5.86428">
        <ele>343.81</ele>
        <time>2019-01-27T11:18:47Z</time>
      </trkpt>
      <trkpt lat="43.40544" lon="5.86422">
        <ele>343.33</ele>
        <time>2019-01-27T11:18:53Z</time>
      </trkpt>
      <trkpt lat="43.40557" lon="5.86406">
        <ele>343.33</ele>
        <time>2019-01-27T11:19:10Z</time>
      </trkpt>
      <trkpt lat="43.4057" lon="5.86392">
        <ele>343.33</ele>
        <time>2019-01-27T11:19:24Z</time>
      </trkpt>
      <trkpt lat="43.40577" lon="5.86384">
        <ele>343.33</ele>
        <time>2019-01-27T11:19:35Z</time>
      </trkpt>
      <trkpt lat="43.40588" lon="5.86369">
        <ele>344.77</ele>
        <time>2019-01-27T11:19:50Z</time>
      </trkpt>
      <trkpt lat="43.40595" lon="5.8636">
        <ele>344.77</ele>
        <time>2019-01-27T11:20:02Z</time>
      </trkpt>
      <trkpt lat="43.40605" lon="5.86344">
        <ele>344.77</ele>
        <time>2019-01-27T11:20:16Z</time>
      </trkpt>
      <trkpt lat="43.40613" lon="5.86329">
        <ele>344.77</ele>
        <time>2019-01-27T11:20:31Z</time>
      </trkpt>
      <trkpt lat="43.40622" lon="5.86319">
        <ele>344.77</ele>
        <time>2019-01-27T11:20:44Z</time>
      </trkpt>
      <trkpt lat="43.40624" lon="5.86317">
        <ele>344.77</ele>
        <time>2019-01-27T11:20:48Z</time>
      </trkpt>
      <trkpt lat="43.40638" lon="5.86295">
        <ele>344.29</ele>
        <time>2019-01-27T11:21:03Z</time>
      </trkpt>
      <trkpt lat="43.40645" lon="5.86285">
        <ele>344.29</ele>
        <time>2019-01-27T11:21:09Z</time>
      </trkpt>
      <trkpt lat="43.4065" lon="5.86277">
        <ele>344.29</ele>
        <time>2019-01-27T11:21:13Z</time>
      </trkpt>
      <trkpt lat="43.40675" lon="5.86234">
        <ele>344.29</ele>
        <time>2019-01-27T11:21:29Z</time>
      </trkpt>
      <trkpt lat="43.40699" lon="5.86188">
        <ele>344.29</ele>
        <time>2019-01-27T11:21:42Z</time>
      </trkpt>
      <trkpt lat="43.4073" lon="5.86129">
        <ele>344.29</ele>
        <time>2019-01-27T11:21:56Z</time>
      </trkpt>
      <trkpt lat="43.40771" lon="5.86061">
        <ele>344.29</ele>
        <time>2019-01-27T11:22:13Z</time>
      </trkpt>
      <trkpt lat="43.40802" lon="5.86014">
        <ele>344.29</ele>
        <time>2019-01-27T11:22:28Z</time>
      </trkpt>
      <trkpt lat="43.40804" lon="5.86006">
        <ele>343.81</ele>
        <time>2019-01-27T11:22:38Z</time>
      </trkpt>
      <trkpt lat="43.40811" lon="5.86002">
        <ele>344.77</ele>
        <time>2019-01-27T11:22:49Z</time>
      </trkpt>
      <trkpt lat="43.40812" lon="5.86">
        <ele>344.77</ele>
        <time>2019-01-27T11:22:56Z</time>
      </trkpt>
      <trkpt lat="43.40816" lon="5.85999">
        <ele>343.33</ele>
        <time>2019-01-27T11:22:58Z</time>
      </trkpt>
      <trkpt lat="43.40818" lon="5.85998">
        <ele>343.33</ele>
        <time>2019-01-27T11:22:59Z</time>
      </trkpt>
      <trkpt lat="43.4082" lon="5.85996">
        <ele>343.33</ele>
        <time>2019-01-27T11:23:00Z</time>
      </trkpt>
      <trkpt lat="43.40822" lon="5.85994">
        <ele>343.33</ele>
        <time>2019-01-27T11:23:01Z</time>
      </trkpt>
      <trkpt lat="43.40825" lon="5.85992">
        <ele>343.33</ele>
        <time>2019-01-27T11:23:02Z</time>
      </trkpt>
      <trkpt lat="43.40872" lon="5.8594">
        <ele>343.33</ele>
        <time>2019-01-27T11:23:20Z</time>
      </trkpt>
      <trkpt lat="43.40939" lon="5.85894">
        <ele>343.33</ele>
        <time>2019-01-27T11:23:38Z</time>
      </trkpt>
      <trkpt lat="43.4101" lon="5.85887">
        <ele>343.33</ele>
        <time>2019-01-27T11:23:54Z</time>
      </trkpt>
      <trkpt lat="43.41087" lon="5.85912">
        <ele>343.33</ele>
        <time>2019-01-27T11:24:10Z</time>
      </trkpt>
      <trkpt lat="43.41171" lon="5.85937">
        <ele>343.33</ele>
        <time>2019-01-27T11:24:28Z</time>
      </trkpt>
      <trkpt lat="43.41252" lon="5.85962">
        <ele>343.33</ele>
        <time>2019-01-27T11:24:46Z</time>
      </trkpt>
      <trkpt lat="43.4133" lon="5.85988">
        <ele>344.77</ele>
        <time>2019-01-27T11:25:03Z</time>
      </trkpt>
      <trkpt lat="43.41384" lon="5.86006">
        <ele>344.77</ele>
        <time>2019-01-27T11:25:15Z</time>
      </trkpt>
      <trkpt lat="43.41439" lon="5.86">
        <ele>344.77</ele>
        <time>2019-01-27T11:25:28Z</time>
      </trkpt>
      <trkpt lat="43.4144" lon="5.85997">
        <ele>344.77</ele>
        <time>2019-01-27T11:25:29Z</time>
      </trkpt>
      <trkpt lat="43.41439" lon="5.85994">
        <ele>344.77</ele>
        <time>2019-01-27T11:25:30Z</time>
      </trkpt>
      <trkpt lat="43.41438" lon="5.85992">
        <ele>344.77</ele>
        <time>2019-01-27T11:25:31Z</time>
      </trkpt>
      <trkpt lat="43.41437" lon="5.85991">
        <ele>344.77</ele>
        <time>2019-01-27T11:25:32Z</time>
      </trkpt>
      <trkpt lat="43.41436" lon="5.8599">
        <ele>344.77</ele>
        <time>2019-01-27T11:25:33Z</time>
      </trkpt>
      <trkpt lat="43.41435" lon="5.85989">
        <ele>344.77</ele>
        <time>2019-01-27T11:25:34Z</time>
      </trkpt>
      <trkpt lat="43.41434" lon="5.85985">
        <ele>343.33</ele>
        <time>2019-01-27T11:25:36Z</time>
      </trkpt>
      <trkpt lat="43.41434" lon="5.85977">
        <ele>343.33</ele>
        <time>2019-01-27T11:25:39Z</time>
      </trkpt>
      <trkpt lat="43.41433" lon="5.85975">
        <ele>343.33</ele>
        <time>2019-01-27T11:25:40Z</time>
      </trkpt>
      <trkpt lat="43.4143" lon="5.8597">
        <ele>342.37</ele>
        <time>2019-01-27T11:25:47Z</time>
      </trkpt>
      <trkpt lat="43.4143" lon="5.85969">
        <ele>342.37</ele>
        <time>2019-01-27T11:25:48Z</time>
      </trkpt>
      <trkpt lat="43.41428" lon="5.85967">
        <ele>342.37</ele>
        <time>2019-01-27T11:25:49Z</time>
      </trkpt>
      <trkpt lat="43.41427" lon="5.85965">
        <ele>342.37</ele>
        <time>2019-01-27T11:25:50Z</time>
      </trkpt>
      <trkpt lat="43.41426" lon="5.85963">
        <ele>342.37</ele>
        <time>2019-01-27T11:25:51Z</time>
      </trkpt>
      <trkpt lat="43.41425" lon="5.8596">
        <ele>341.89</ele>
        <time>2019-01-27T11:25:52Z</time>
      </trkpt>
      <trkpt lat="43.41424" lon="5.85956">
        <ele>341.89</ele>
        <time>2019-01-27T11:25:53Z</time>
      </trkpt>
      <trkpt lat="43.41424" lon="5.85951">
        <ele>340.92</ele>
        <time>2019-01-27T11:25:54Z</time>
      </trkpt>
      <trkpt lat="43.41424" lon="5.85946">
        <ele>340.44</ele>
        <time>2019-01-27T11:25:55Z</time>
      </trkpt>
      <trkpt lat="43.41426" lon="5.85942">
        <ele>339.96</ele>
        <time>2019-01-27T11:25:56Z</time>
      </trkpt>
      <trkpt lat="43.41428" lon="5.85938">
        <ele>339</ele>
        <time>2019-01-27T11:25:57Z</time>
      </trkpt>
      <trkpt lat="43.41431" lon="5.85935">
        <ele>337.56</ele>
        <time>2019-01-27T11:25:58Z</time>
      </trkpt>
      <trkpt lat="43.41435" lon="5.85934">
        <ele>337.56</ele>
        <time>2019-01-27T11:25:59Z</time>
      </trkpt>
      <trkpt lat="43.41439" lon="5.85935">
        <ele>336.6</ele>
        <time>2019-01-27T11:26:00Z</time>
      </trkpt>
      <trkpt lat="43.41446" lon="5.85936">
        <ele>336.12</ele>
        <time>2019-01-27T11:26:01Z</time>
      </trkpt>
      <trkpt lat="43.41479" lon="5.85945">
        <ele>333.71</ele>
        <time>2019-01-27T11:26:05Z</time>
      </trkpt>
      <trkpt lat="43.41515" lon="5.85959">
        <ele>330.83</ele>
        <time>2019-01-27T11:26:10Z</time>
      </trkpt>
      <trkpt lat="43.41547" lon="5.85973">
        <ele>327.47</ele>
        <time>2019-01-27T11:26:16Z</time>
      </trkpt>
      <trkpt lat="43.41552" lon="5.85976">
        <ele>327.47</ele>
        <time>2019-01-27T11:26:17Z</time>
      </trkpt>
      <trkpt lat="43.41562" lon="5.8598">
        <ele>326.5</ele>
        <time>2019-01-27T11:26:19Z</time>
      </trkpt>
      <trkpt lat="43.41567" lon="5.85982">
        <ele>325.06</ele>
        <time>2019-01-27T11:26:20Z</time>
      </trkpt>
      <trkpt lat="43.41572" lon="5.85982">
        <ele>325.54</ele>
        <time>2019-01-27T11:26:21Z</time>
      </trkpt>
      <trkpt lat="43.41577" lon="5.85981">
        <ele>324.1</ele>
        <time>2019-01-27T11:26:22Z</time>
      </trkpt>
      <trkpt lat="43.41582" lon="5.85978">
        <ele>324.1</ele>
        <time>2019-01-27T11:26:23Z</time>
      </trkpt>
      <trkpt lat="43.41586" lon="5.85973">
        <ele>324.1</ele>
        <time>2019-01-27T11:26:24Z</time>
      </trkpt>
      <trkpt lat="43.41589" lon="5.85968">
        <ele>323.62</ele>
        <time>2019-01-27T11:26:25Z</time>
      </trkpt>
      <trkpt lat="43.4159" lon="5.85961">
        <ele>323.62</ele>
        <time>2019-01-27T11:26:26Z</time>
      </trkpt>
      <trkpt lat="43.41589" lon="5.85955">
        <ele>323.62</ele>
        <time>2019-01-27T11:26:27Z</time>
      </trkpt>
      <trkpt lat="43.41589" lon="5.85948">
        <ele>321.22</ele>
        <time>2019-01-27T11:26:28Z</time>
      </trkpt>
      <trkpt lat="43.4159" lon="5.85941">
        <ele>319.78</ele>
        <time>2019-01-27T11:26:29Z</time>
      </trkpt>
      <trkpt lat="43.41591" lon="5.85935">
        <ele>319.3</ele>
        <time>2019-01-27T11:26:30Z</time>
      </trkpt>
      <trkpt lat="43.41593" lon="5.85929">
        <ele>318.33</ele>
        <time>2019-01-27T11:26:31Z</time>
      </trkpt>
      <trkpt lat="43.41596" lon="5.85924">
        <ele>317.85</ele>
        <time>2019-01-27T11:26:32Z</time>
      </trkpt>
      <trkpt lat="43.41599" lon="5.8592">
        <ele>317.37</ele>
        <time>2019-01-27T11:26:33Z</time>
      </trkpt>
      <trkpt lat="43.41615" lon="5.85905">
        <ele>316.89</ele>
        <time>2019-01-27T11:26:44Z</time>
      </trkpt>
      <trkpt lat="43.41622" lon="5.85899">
        <ele>316.89</ele>
        <time>2019-01-27T11:26:56Z</time>
      </trkpt>
      <trkpt lat="43.41624" lon="5.85897">
        <ele>317.85</ele>
        <time>2019-01-27T11:27:03Z</time>
      </trkpt>
      <trkpt lat="43.41626" lon="5.85897">
        <ele>317.85</ele>
        <time>2019-01-27T11:27:04Z</time>
      </trkpt>
      <trkpt lat="43.41627" lon="5.85896">
        <ele>317.85</ele>
        <time>2019-01-27T11:27:05Z</time>
      </trkpt>
      <trkpt lat="43.41629" lon="5.85896">
        <ele>317.85</ele>
        <time>2019-01-27T11:27:06Z</time>
      </trkpt>
      <trkpt lat="43.41631" lon="5.85896">
        <ele>318.33</ele>
        <time>2019-01-27T11:27:07Z</time>
      </trkpt>
      <trkpt lat="43.41632" lon="5.85895">
        <ele>318.33</ele>
        <time>2019-01-27T11:27:08Z</time>
      </trkpt>
      <trkpt lat="43.41644" lon="5.85889">
        <ele>320.26</ele>
        <time>2019-01-27T11:27:16Z</time>
      </trkpt>
      <trkpt lat="43.41664" lon="5.859">
        <ele>322.18</ele>
        <time>2019-01-27T11:27:28Z</time>
      </trkpt>
      <trkpt lat="43.41707" lon="5.85913">
        <ele>324.58</ele>
        <time>2019-01-27T11:27:45Z</time>
      </trkpt>
      <trkpt lat="43.41722" lon="5.85907">
        <ele>326.02</ele>
        <time>2019-01-27T11:27:54Z</time>
      </trkpt>
      <trkpt lat="43.41741" lon="5.85903">
        <ele>327.95</ele>
        <time>2019-01-27T11:28:09Z</time>
      </trkpt>
      <trkpt lat="43.41749" lon="5.85905">
        <ele>328.43</ele>
        <time>2019-01-27T11:28:20Z</time>
      </trkpt>
      <trkpt lat="43.4175" lon="5.85905">
        <ele>328.43</ele>
        <time>2019-01-27T11:28:21Z</time>
      </trkpt>
      <trkpt lat="43.41752" lon="5.85904">
        <ele>328.91</ele>
        <time>2019-01-27T11:28:22Z</time>
      </trkpt>
      <trkpt lat="43.41753" lon="5.85904">
        <ele>328.91</ele>
        <time>2019-01-27T11:28:23Z</time>
      </trkpt>
      <trkpt lat="43.41755" lon="5.85904">
        <ele>328.91</ele>
        <time>2019-01-27T11:28:24Z</time>
      </trkpt>
      <trkpt lat="43.41756" lon="5.85904">
        <ele>329.39</ele>
        <time>2019-01-27T11:28:25Z</time>
      </trkpt>
      <trkpt lat="43.41758" lon="5.85904">
        <ele>329.39</ele>
        <time>2019-01-27T11:28:26Z</time>
      </trkpt>
      <trkpt lat="43.41783" lon="5.8591">
        <ele>331.31</ele>
        <time>2019-01-27T11:28:41Z</time>
      </trkpt>
      <trkpt lat="43.41808" lon="5.85919">
        <ele>333.23</ele>
        <time>2019-01-27T11:28:55Z</time>
      </trkpt>
      <trkpt lat="43.4184" lon="5.85919">
        <ele>336.12</ele>
        <time>2019-01-27T11:29:12Z</time>
      </trkpt>
      <trkpt lat="43.41856" lon="5.85918">
        <ele>338.04</ele>
        <time>2019-01-27T11:29:18Z</time>
      </trkpt>
      <trkpt lat="43.41857" lon="5.85916">
        <ele>338.04</ele>
        <time>2019-01-27T11:29:19Z</time>
      </trkpt>
      <trkpt lat="43.41858" lon="5.85914">
        <ele>338.52</ele>
        <time>2019-01-27T11:29:20Z</time>
      </trkpt>
      <trkpt lat="43.41858" lon="5.85913">
        <ele>338.52</ele>
        <time>2019-01-27T11:29:21Z</time>
      </trkpt>
      <trkpt lat="43.41858" lon="5.85911">
        <ele>339</ele>
        <time>2019-01-27T11:29:22Z</time>
      </trkpt>
      <trkpt lat="43.41858" lon="5.85909">
        <ele>339</ele>
        <time>2019-01-27T11:29:23Z</time>
      </trkpt>
      <trkpt lat="43.41857" lon="5.85907">
        <ele>339.48</ele>
        <time>2019-01-27T11:29:24Z</time>
      </trkpt>
      <trkpt lat="43.41856" lon="5.85906">
        <ele>339.96</ele>
        <time>2019-01-27T11:29:25Z</time>
      </trkpt>
      <trkpt lat="43.41855" lon="5.85905">
        <ele>339.96</ele>
        <time>2019-01-27T11:29:26Z</time>
      </trkpt>
      <trkpt lat="43.41854" lon="5.85904">
        <ele>339.96</ele>
        <time>2019-01-27T11:29:27Z</time>
      </trkpt>
      <trkpt lat="43.41854" lon="5.85903">
        <ele>340.44</ele>
        <time>2019-01-27T11:29:28Z</time>
      </trkpt>
      <trkpt lat="43.41852" lon="5.85901">
        <ele>340.44</ele>
        <time>2019-01-27T11:29:29Z</time>
      </trkpt>
      <trkpt lat="43.41851" lon="5.859">
        <ele>340.92</ele>
        <time>2019-01-27T11:29:30Z</time>
      </trkpt>
      <trkpt lat="43.4185" lon="5.85878">
        <ele>342.37</ele>
        <time>2019-01-27T11:29:43Z</time>
      </trkpt>
      <trkpt lat="43.41857" lon="5.8587">
        <ele>342.37</ele>
        <time>2019-01-27T11:29:48Z</time>
      </trkpt>
      <trkpt lat="43.41861" lon="5.85836">
        <ele>342.85</ele>
        <time>2019-01-27T11:30:00Z</time>
      </trkpt>
      <trkpt lat="43.41862" lon="5.85828">
        <ele>342.85</ele>
        <time>2019-01-27T11:30:27Z</time>
      </trkpt>
      <trkpt lat="43.41863" lon="5.85828">
        <ele>342.85</ele>
        <time>2019-01-27T11:30:30Z</time>
      </trkpt>
      <trkpt lat="43.41886" lon="5.85828">
        <ele>343.33</ele>
        <time>2019-01-27T11:30:42Z</time>
      </trkpt>
      <trkpt lat="43.41888" lon="5.85828">
        <ele>343.33</ele>
        <time>2019-01-27T11:30:43Z</time>
      </trkpt>
      <trkpt lat="43.4189" lon="5.85828">
        <ele>343.33</ele>
        <time>2019-01-27T11:30:44Z</time>
      </trkpt>
      <trkpt lat="43.41932" lon="5.85839">
        <ele>346.69</ele>
        <time>2019-01-27T11:31:00Z</time>
      </trkpt>
      <trkpt lat="43.41958" lon="5.8585">
        <ele>347.65</ele>
        <time>2019-01-27T11:31:14Z</time>
      </trkpt>
      <trkpt lat="43.41989" lon="5.85862">
        <ele>347.65</ele>
        <time>2019-01-27T11:31:25Z</time>
      </trkpt>
      <trkpt lat="43.41993" lon="5.85862">
        <ele>346.69</ele>
        <time>2019-01-27T11:31:26Z</time>
      </trkpt>
      <trkpt lat="43.41998" lon="5.85862">
        <ele>346.69</ele>
        <time>2019-01-27T11:31:27Z</time>
      </trkpt>
      <trkpt lat="43.42007" lon="5.85864">
        <ele>346.69</ele>
        <time>2019-01-27T11:31:29Z</time>
      </trkpt>
      <trkpt lat="43.42056" lon="5.85881">
        <ele>347.17</ele>
        <time>2019-01-27T11:31:43Z</time>
      </trkpt>
      <trkpt lat="43.42078" lon="5.85891">
        <ele>348.13</ele>
        <time>2019-01-27T11:31:50Z</time>
      </trkpt>
      <trkpt lat="43.42081" lon="5.85893">
        <ele>348.13</ele>
        <time>2019-01-27T11:31:51Z</time>
      </trkpt>
      <trkpt lat="43.421" lon="5.85901">
        <ele>346.21</ele>
        <time>2019-01-27T11:31:55Z</time>
      </trkpt>
      <trkpt lat="43.4214" lon="5.85914">
        <ele>346.21</ele>
        <time>2019-01-27T11:32:06Z</time>
      </trkpt>
      <trkpt lat="43.42147" lon="5.85914">
        <ele>347.17</ele>
        <time>2019-01-27T11:32:08Z</time>
      </trkpt>
      <trkpt lat="43.42198" lon="5.85919">
        <ele>347.65</ele>
        <time>2019-01-27T11:32:22Z</time>
      </trkpt>
      <trkpt lat="43.42268" lon="5.85907">
        <ele>348.13</ele>
        <time>2019-01-27T11:32:36Z</time>
      </trkpt>
      <trkpt lat="43.42298" lon="5.85899">
        <ele>348.13</ele>
        <time>2019-01-27T11:32:46Z</time>
      </trkpt>
      <trkpt lat="43.42301" lon="5.85892">
        <ele>348.13</ele>
        <time>2019-01-27T11:32:52Z</time>
      </trkpt>
      <trkpt lat="43.42302" lon="5.85893">
        <ele>348.13</ele>
        <time>2019-01-27T11:32:54Z</time>
      </trkpt>
      <trkpt lat="43.42303" lon="5.85893">
        <ele>348.13</ele>
        <time>2019-01-27T11:32:55Z</time>
      </trkpt>
      <trkpt lat="43.42305" lon="5.85892">
        <ele>348.13</ele>
        <time>2019-01-27T11:32:59Z</time>
      </trkpt>
      <trkpt lat="43.42307" lon="5.85892">
        <ele>349.58</ele>
        <time>2019-01-27T11:33:00Z</time>
      </trkpt>
      <trkpt lat="43.42309" lon="5.85891">
        <ele>349.58</ele>
        <time>2019-01-27T11:33:01Z</time>
      </trkpt>
      <trkpt lat="43.42312" lon="5.8589">
        <ele>350.06</ele>
        <time>2019-01-27T11:33:02Z</time>
      </trkpt>
      <trkpt lat="43.42315" lon="5.85889">
        <ele>350.06</ele>
        <time>2019-01-27T11:33:03Z</time>
      </trkpt>
      <trkpt lat="43.42318" lon="5.85888">
        <ele>350.06</ele>
        <time>2019-01-27T11:33:04Z</time>
      </trkpt>
      <trkpt lat="43.42321" lon="5.85887">
        <ele>350.06</ele>
        <time>2019-01-27T11:33:05Z</time>
      </trkpt>
      <trkpt lat="43.42368" lon="5.85863">
        <ele>352.46</ele>
        <time>2019-01-27T11:33:21Z</time>
      </trkpt>
      <trkpt lat="43.42393" lon="5.85845">
        <ele>351.02</ele>
        <time>2019-01-27T11:33:31Z</time>
      </trkpt>
      <trkpt lat="43.42448" lon="5.85813">
        <ele>348.13</ele>
        <time>2019-01-27T11:33:43Z</time>
      </trkpt>
      <trkpt lat="43.42517" lon="5.85777">
        <ele>349.58</ele>
        <time>2019-01-27T11:33:56Z</time>
      </trkpt>
      <trkpt lat="43.42579" lon="5.85738">
        <ele>351.02</ele>
        <time>2019-01-27T11:34:11Z</time>
      </trkpt>
      <trkpt lat="43.42614" lon="5.85724">
        <ele>349.1</ele>
        <time>2019-01-27T11:34:17Z</time>
      </trkpt>
      <trkpt lat="43.42635" lon="5.85718">
        <ele>345.25</ele>
        <time>2019-01-27T11:34:20Z</time>
      </trkpt>
      <trkpt lat="43.42641" lon="5.85716">
        <ele>345.25</ele>
        <time>2019-01-27T11:34:21Z</time>
      </trkpt>
      <trkpt lat="43.42666" lon="5.85713">
        <ele>347.17</ele>
        <time>2019-01-27T11:34:25Z</time>
      </trkpt>
      <trkpt lat="43.42702" lon="5.85711">
        <ele>349.58</ele>
        <time>2019-01-27T11:34:32Z</time>
      </trkpt>
      <trkpt lat="43.42786" lon="5.85718">
        <ele>349.58</ele>
        <time>2019-01-27T11:34:48Z</time>
      </trkpt>
      <trkpt lat="43.42847" lon="5.85731">
        <ele>351.02</ele>
        <time>2019-01-27T11:35:01Z</time>
      </trkpt>
      <trkpt lat="43.42851" lon="5.85729">
        <ele>351.5</ele>
        <time>2019-01-27T11:35:02Z</time>
      </trkpt>
      <trkpt lat="43.42856" lon="5.85729">
        <ele>351.5</ele>
        <time>2019-01-27T11:35:03Z</time>
      </trkpt>
      <trkpt lat="43.42859" lon="5.85725">
        <ele>352.46</ele>
        <time>2019-01-27T11:35:04Z</time>
      </trkpt>
      <trkpt lat="43.42861" lon="5.85721">
        <ele>352.46</ele>
        <time>2019-01-27T11:35:05Z</time>
      </trkpt>
      <trkpt lat="43.42866" lon="5.85711">
        <ele>353.42</ele>
        <time>2019-01-27T11:35:07Z</time>
      </trkpt>
      <trkpt lat="43.42871" lon="5.85701">
        <ele>351.5</ele>
        <time>2019-01-27T11:35:09Z</time>
      </trkpt>
      <trkpt lat="43.42878" lon="5.85688">
        <ele>351.5</ele>
        <time>2019-01-27T11:35:12Z</time>
      </trkpt>
      <trkpt lat="43.42892" lon="5.85662">
        <ele>352.94</ele>
        <time>2019-01-27T11:35:18Z</time>
      </trkpt>
      <trkpt lat="43.42903" lon="5.85647">
        <ele>354.38</ele>
        <time>2019-01-27T11:35:22Z</time>
      </trkpt>
      <trkpt lat="43.42947" lon="5.8561">
        <ele>357.27</ele>
        <time>2019-01-27T11:35:36Z</time>
      </trkpt>
      <trkpt lat="43.42994" lon="5.85571">
        <ele>356.79</ele>
        <time>2019-01-27T11:35:50Z</time>
      </trkpt>
      <trkpt lat="43.43011" lon="5.85552">
        <ele>355.83</ele>
        <time>2019-01-27T11:35:55Z</time>
      </trkpt>
      <trkpt lat="43.43057" lon="5.85476">
        <ele>353.9</ele>
        <time>2019-01-27T11:36:08Z</time>
      </trkpt>
      <trkpt lat="43.4306" lon="5.85471">
        <ele>353.9</ele>
        <time>2019-01-27T11:36:09Z</time>
      </trkpt>
      <trkpt lat="43.43076" lon="5.85446">
        <ele>354.38</ele>
        <time>2019-01-27T11:36:14Z</time>
      </trkpt>
      <trkpt lat="43.43079" lon="5.85441">
        <ele>354.38</ele>
        <time>2019-01-27T11:36:15Z</time>
      </trkpt>
      <trkpt lat="43.43097" lon="5.85409">
        <ele>353.9</ele>
        <time>2019-01-27T11:36:22Z</time>
      </trkpt>
      <trkpt lat="43.43133" lon="5.85389">
        <ele>353.9</ele>
        <time>2019-01-27T11:36:32Z</time>
      </trkpt>
      <trkpt lat="43.43197" lon="5.85414">
        <ele>352.94</ele>
        <time>2019-01-27T11:36:45Z</time>
      </trkpt>
      <trkpt lat="43.43283" lon="5.85449">
        <ele>354.86</ele>
        <time>2019-01-27T11:37:03Z</time>
      </trkpt>
      <trkpt lat="43.43347" lon="5.85475">
        <ele>357.27</ele>
        <time>2019-01-27T11:37:19Z</time>
      </trkpt>
      <trkpt lat="43.43408" lon="5.85502">
        <ele>360.63</ele>
        <time>2019-01-27T11:37:36Z</time>
      </trkpt>
      <trkpt lat="43.43454" lon="5.85521">
        <ele>362.55</ele>
        <time>2019-01-27T11:37:50Z</time>
      </trkpt>
      <trkpt lat="43.4351" lon="5.85545">
        <ele>365.92</ele>
        <time>2019-01-27T11:38:08Z</time>
      </trkpt>
      <trkpt lat="43.43551" lon="5.85558">
        <ele>368.8</ele>
        <time>2019-01-27T11:38:22Z</time>
      </trkpt>
      <trkpt lat="43.43594" lon="5.85552">
        <ele>368.8</ele>
        <time>2019-01-27T11:38:34Z</time>
      </trkpt>
      <trkpt lat="43.43599" lon="5.85552">
        <ele>368.8</ele>
        <time>2019-01-27T11:38:35Z</time>
      </trkpt>
      <trkpt lat="43.43604" lon="5.85553">
        <ele>368.8</ele>
        <time>2019-01-27T11:38:36Z</time>
      </trkpt>
      <trkpt lat="43.43608" lon="5.85555">
        <ele>368.8</ele>
        <time>2019-01-27T11:38:37Z</time>
      </trkpt>
      <trkpt lat="43.43612" lon="5.85558">
        <ele>368.8</ele>
        <time>2019-01-27T11:38:38Z</time>
      </trkpt>
      <trkpt lat="43.43685" lon="5.85644">
        <ele>366.4</ele>
        <time>2019-01-27T11:38:55Z</time>
      </trkpt>
      <trkpt lat="43.43737" lon="5.85716">
        <ele>365.92</ele>
        <time>2019-01-27T11:39:07Z</time>
      </trkpt>
      <trkpt lat="43.43741" lon="5.85723">
        <ele>365.92</ele>
        <time>2019-01-27T11:39:08Z</time>
      </trkpt>
      <trkpt lat="43.43787" lon="5.85815">
        <ele>364</ele>
        <time>2019-01-27T11:39:21Z</time>
      </trkpt>
      <trkpt lat="43.43801" lon="5.85837">
        <ele>363.52</ele>
        <time>2019-01-27T11:39:24Z</time>
      </trkpt>
      <trkpt lat="43.43806" lon="5.85845">
        <ele>363.52</ele>
        <time>2019-01-27T11:39:25Z</time>
      </trkpt>
      <trkpt lat="43.43866" lon="5.85957">
        <ele>362.07</ele>
        <time>2019-01-27T11:39:39Z</time>
      </trkpt>
      <trkpt lat="43.43914" lon="5.86059">
        <ele>358.71</ele>
        <time>2019-01-27T11:39:52Z</time>
      </trkpt>
      <trkpt lat="43.43956" lon="5.86165">
        <ele>354.86</ele>
        <time>2019-01-27T11:40:03Z</time>
      </trkpt>
      <trkpt lat="43.43963" lon="5.86186">
        <ele>354.38</ele>
        <time>2019-01-27T11:40:05Z</time>
      </trkpt>
      <trkpt lat="43.43973" lon="5.8622">
        <ele>352.94</ele>
        <time>2019-01-27T11:40:08Z</time>
      </trkpt>
      <trkpt lat="43.43995" lon="5.86282">
        <ele>350.54</ele>
        <time>2019-01-27T11:40:14Z</time>
      </trkpt>
      <trkpt lat="43.43998" lon="5.86289">
        <ele>350.06</ele>
        <time>2019-01-27T11:40:15Z</time>
      </trkpt>
      <trkpt lat="43.44004" lon="5.86294">
        <ele>350.06</ele>
        <time>2019-01-27T11:40:16Z</time>
      </trkpt>
      <trkpt lat="43.44011" lon="5.86299">
        <ele>350.06</ele>
        <time>2019-01-27T11:40:17Z</time>
      </trkpt>
      <trkpt lat="43.44015" lon="5.863">
        <ele>349.58</ele>
        <time>2019-01-27T11:40:18Z</time>
      </trkpt>
      <trkpt lat="43.44021" lon="5.86302">
        <ele>349.58</ele>
        <time>2019-01-27T11:40:19Z</time>
      </trkpt>
      <trkpt lat="43.44027" lon="5.86303">
        <ele>349.1</ele>
        <time>2019-01-27T11:40:20Z</time>
      </trkpt>
      <trkpt lat="43.44033" lon="5.86303">
        <ele>349.1</ele>
        <time>2019-01-27T11:40:21Z</time>
      </trkpt>
      <trkpt lat="43.44039" lon="5.86302">
        <ele>348.13</ele>
        <time>2019-01-27T11:40:22Z</time>
      </trkpt>
      <trkpt lat="43.44043" lon="5.863">
        <ele>348.13</ele>
        <time>2019-01-27T11:40:23Z</time>
      </trkpt>
      <trkpt lat="43.44046" lon="5.86297">
        <ele>347.65</ele>
        <time>2019-01-27T11:40:24Z</time>
      </trkpt>
      <trkpt lat="43.44047" lon="5.86291">
        <ele>347.65</ele>
        <time>2019-01-27T11:40:25Z</time>
      </trkpt>
      <trkpt lat="43.44047" lon="5.86287">
        <ele>347.65</ele>
        <time>2019-01-27T11:40:26Z</time>
      </trkpt>
      <trkpt lat="43.44046" lon="5.86285">
        <ele>347.65</ele>
        <time>2019-01-27T11:40:27Z</time>
      </trkpt>
      <trkpt lat="43.44045" lon="5.86281">
        <ele>349.1</ele>
        <time>2019-01-27T11:40:28Z</time>
      </trkpt>
      <trkpt lat="43.44037" lon="5.86242">
        <ele>352.94</ele>
        <time>2019-01-27T11:40:38Z</time>
      </trkpt>
      <trkpt lat="43.44031" lon="5.86183">
        <ele>355.34</ele>
        <time>2019-01-27T11:40:52Z</time>
      </trkpt>
      <trkpt lat="43.44027" lon="5.86168">
        <ele>355.34</ele>
        <time>2019-01-27T11:40:56Z</time>
      </trkpt>
      <trkpt lat="43.44026" lon="5.86166">
        <ele>355.34</ele>
        <time>2019-01-27T11:40:57Z</time>
      </trkpt>
      <trkpt lat="43.44" lon="5.86158">
        <ele>356.79</ele>
        <time>2019-01-27T11:41:08Z</time>
      </trkpt>
      <trkpt lat="43.43985" lon="5.86126">
        <ele>359.19</ele>
        <time>2019-01-27T11:41:21Z</time>
      </trkpt>
      <trkpt lat="43.43974" lon="5.86092">
        <ele>359.67</ele>
        <time>2019-01-27T11:41:33Z</time>
      </trkpt>
      <trkpt lat="43.43978" lon="5.86086">
        <ele>359.67</ele>
        <time>2019-01-27T11:41:36Z</time>
      </trkpt>
      <trkpt lat="43.43981" lon="5.86078">
        <ele>360.15</ele>
        <time>2019-01-27T11:41:40Z</time>
      </trkpt>
      <trkpt lat="43.43977" lon="5.86032">
        <ele>360.15</ele>
        <time>2019-01-27T11:41:55Z</time>
      </trkpt>
      <trkpt lat="43.43974" lon="5.86026">
        <ele>360.63</ele>
        <time>2019-01-27T11:42:06Z</time>
      </trkpt>
      <trkpt lat="43.43975" lon="5.86024">
        <ele>360.63</ele>
        <time>2019-01-27T11:42:34Z</time>
      </trkpt>
      <trkpt lat="43.43974" lon="5.86025">
        <ele>360.63</ele>
        <time>2019-01-27T11:42:50Z</time>
      </trkpt>
      <trkpt lat="43.43973" lon="5.86028">
        <ele>360.15</ele>
        <time>2019-01-27T11:43:14Z</time>
      </trkpt>
      <trkpt lat="43.43973" lon="5.86026">
        <ele>360.15</ele>
        <time>2019-01-27T11:43:50Z</time>
      </trkpt>
      <trkpt lat="43.43972" lon="5.86029">
        <ele>361.11</ele>
        <time>2019-01-27T11:44:33Z</time>
      </trkpt>
      <trkpt lat="43.43972" lon="5.86028">
        <ele>361.11</ele>
        <time>2019-01-27T11:45:11Z</time>
      </trkpt>
      <trkpt lat="43.43967" lon="5.86029">
        <ele>360.63</ele>
        <time>2019-01-27T11:45:54Z</time>
      </trkpt>
      <trkpt lat="43.43971" lon="5.8603">
        <ele>360.63</ele>
        <time>2019-01-27T11:46:34Z</time>
      </trkpt>
      <trkpt lat="43.4397" lon="5.86031">
        <ele>360.15</ele>
        <time>2019-01-27T11:47:10Z</time>
      </trkpt>
      <trkpt lat="43.43972" lon="5.86032">
        <ele>359.67</ele>
        <time>2019-01-27T11:47:57Z</time>
      </trkpt>
      <trkpt lat="43.43972" lon="5.86033">
        <ele>359.67</ele>
        <time>2019-01-27T11:48:39Z</time>
      </trkpt>
      <trkpt lat="43.43973" lon="5.86032">
        <ele>359.67</ele>
        <time>2019-01-27T11:49:18Z</time>
      </trkpt>
      <trkpt lat="43.43972" lon="5.86028">
        <ele>359.67</ele>
        <time>2019-01-27T11:49:52Z</time>
      </trkpt>
      <trkpt lat="43.43971" lon="5.86027">
        <ele>359.19</ele>
        <time>2019-01-27T11:50:28Z</time>
      </trkpt>
      <trkpt lat="43.4397" lon="5.86026">
        <ele>359.19</ele>
        <time>2019-01-27T11:50:57Z</time>
      </trkpt>
      <trkpt lat="43.43971" lon="5.86034">
        <ele>359.19</ele>
        <time>2019-01-27T11:51:32Z</time>
      </trkpt>
      <trkpt lat="43.43973" lon="5.8604">
        <ele>359.19</ele>
        <time>2019-01-27T11:52:11Z</time>
      </trkpt>
      <trkpt lat="43.43974" lon="5.8604">
        <ele>358.71</ele>
        <time>2019-01-27T11:52:50Z</time>
      </trkpt>
      <trkpt lat="43.43969" lon="5.86033">
        <ele>358.71</ele>
        <time>2019-01-27T11:53:22Z</time>
      </trkpt>
      <trkpt lat="43.4397" lon="5.86027">
        <ele>358.71</ele>
        <time>2019-01-27T11:53:52Z</time>
      </trkpt>
      <trkpt lat="43.43968" lon="5.86029">
        <ele>358.23</ele>
        <time>2019-01-27T11:54:23Z</time>
      </trkpt>
      <trkpt lat="43.43966" lon="5.86031">
        <ele>358.23</ele>
        <time>2019-01-27T11:54:58Z</time>
      </trkpt>
      <trkpt lat="43.43964" lon="5.86029">
        <ele>356.79</ele>
        <time>2019-01-27T11:55:23Z</time>
      </trkpt>
      <trkpt lat="43.43963" lon="5.86028">
        <ele>356.31</ele>
        <time>2019-01-27T11:56:01Z</time>
      </trkpt>
      <trkpt lat="43.43966" lon="5.86026">
        <ele>356.31</ele>
        <time>2019-01-27T11:56:39Z</time>
      </trkpt>
      <trkpt lat="43.43968" lon="5.86027">
        <ele>356.31</ele>
        <time>2019-01-27T11:57:18Z</time>
      </trkpt>
      <trkpt lat="43.43969" lon="5.86029">
        <ele>356.31</ele>
        <time>2019-01-27T11:58:01Z</time>
      </trkpt>
      <trkpt lat="43.43971" lon="5.8603">
        <ele>355.83</ele>
        <time>2019-01-27T11:58:44Z</time>
      </trkpt>
      <trkpt lat="43.43972" lon="5.8603">
        <ele>355.83</ele>
        <time>2019-01-27T11:59:22Z</time>
      </trkpt>
      <trkpt lat="43.43969" lon="5.86032">
        <ele>355.34</ele>
        <time>2019-01-27T11:59:54Z</time>
      </trkpt>
      <trkpt lat="43.43969" lon="5.86033">
        <ele>355.34</ele>
        <time>2019-01-27T12:00:29Z</time>
      </trkpt>
      <trkpt lat="43.43972" lon="5.86032">
        <ele>355.83</ele>
        <time>2019-01-27T12:01:11Z</time>
      </trkpt>
      <trkpt lat="43.43968" lon="5.86027">
        <ele>355.83</ele>
        <time>2019-01-27T12:01:51Z</time>
      </trkpt>
      <trkpt lat="43.43965" lon="5.86026">
        <ele>357.27</ele>
        <time>2019-01-27T12:02:26Z</time>
      </trkpt>
      <trkpt lat="43.43967" lon="5.86024">
        <ele>357.27</ele>
        <time>2019-01-27T12:02:54Z</time>
      </trkpt>
      <trkpt lat="43.4397" lon="5.86024">
        <ele>356.31</ele>
        <time>2019-01-27T12:03:28Z</time>
      </trkpt>
      <trkpt lat="43.43971" lon="5.86021">
        <ele>356.31</ele>
        <time>2019-01-27T12:04:03Z</time>
      </trkpt>
      <trkpt lat="43.43972" lon="5.86023">
        <ele>356.31</ele>
        <time>2019-01-27T12:04:36Z</time>
      </trkpt>
      <trkpt lat="43.43972" lon="5.86025">
        <ele>357.27</ele>
        <time>2019-01-27T12:05:05Z</time>
      </trkpt>
      <trkpt lat="43.43968" lon="5.86029">
        <ele>357.27</ele>
        <time>2019-01-27T12:05:38Z</time>
      </trkpt>
      <trkpt lat="43.43966" lon="5.8603">
        <ele>357.75</ele>
        <time>2019-01-27T12:06:09Z</time>
      </trkpt>
      <trkpt lat="43.43967" lon="5.86029">
        <ele>357.75</ele>
        <time>2019-01-27T12:06:36Z</time>
      </trkpt>
      <trkpt lat="43.43966" lon="5.8603">
        <ele>356.31</ele>
        <time>2019-01-27T12:07:06Z</time>
      </trkpt>
      <trkpt lat="43.43967" lon="5.86028">
        <ele>357.75</ele>
        <time>2019-01-27T12:07:36Z</time>
      </trkpt>
      <trkpt lat="43.4397" lon="5.86028">
        <ele>358.71</ele>
        <time>2019-01-27T12:08:12Z</time>
      </trkpt>
      <trkpt lat="43.43968" lon="5.86029">
        <ele>357.27</ele>
        <time>2019-01-27T12:08:42Z</time>
      </trkpt>
      <trkpt lat="43.43968" lon="5.86031">
        <ele>358.23</ele>
        <time>2019-01-27T12:09:13Z</time>
      </trkpt>
      <trkpt lat="43.43969" lon="5.86032">
        <ele>357.75</ele>
        <time>2019-01-27T12:09:29Z</time>
      </trkpt>
      <trkpt lat="43.43971" lon="5.86034">
        <ele>358.71</ele>
        <time>2019-01-27T12:09:38Z</time>
      </trkpt>
      <trkpt lat="43.43971" lon="5.86035">
        <ele>358.71</ele>
        <time>2019-01-27T12:09:39Z</time>
      </trkpt>
      <trkpt lat="43.43964" lon="5.86026">
        <ele>359.19</ele>
        <time>2019-01-27T12:09:57Z</time>
      </trkpt>
    </trkseg>
  </trk>
</gpx>